<?xml version="1.0" encoding="UTF-8" standalone="no" ?>
<gpx xmlns="http://www.topografix.com/GPX/1/1" xmlns:xsi="http://www.w3.org/2001/XMLSchema-instance" xsi:schemaLocation="http://www.topografix.com/GPX/1/1 http://www.topografix.com/GPX/1/1/gpx.xsd" version="1.1" creator="VisuGPX - https://www.visugpx.com">
  <metadata>
    <name>Roc de Toulau en boucle depuis Bouvante le Haut</name>
    <desc><![CDATA[Boucle au départ de Bouvante le Haut par un pas peu fréquenté sur la crête de Comblezine, le Roc de Toulau et le Saut de la Truite. Avec un petit aller-retour pour voir la petite arche qui se trouve dans un rocher au nord de la face est du Roc de Toulau.

Pour le topo on se reportera à la [url=https://www.visugpx.com/FWWRaDZnlU]trace de la sortie d'octobre 2018[/url].]]></desc>
  </metadata>
  <trk>
    <name><![CDATA[2022-10-18 15:45:05]]></name>
    <trkseg>
      <trkpt lat="44.90825" lon="5.24714">
        <ele>779.29</ele>
        <time>2022-10-18T07:20:42Z</time>
      </trkpt>
      <trkpt lat="44.90821" lon="5.24709">
        <ele>780.73</ele>
        <time>2022-10-18T07:21:00Z</time>
      </trkpt>
      <trkpt lat="44.90819" lon="5.24707">
        <ele>780.73</ele>
        <time>2022-10-18T07:21:03Z</time>
      </trkpt>
      <trkpt lat="44.90811" lon="5.24695">
        <ele>782.17</ele>
        <time>2022-10-18T07:21:17Z</time>
      </trkpt>
      <trkpt lat="44.90806" lon="5.24678">
        <ele>783.61</ele>
        <time>2022-10-18T07:21:29Z</time>
      </trkpt>
      <trkpt lat="44.90798" lon="5.24652">
        <ele>784.09</ele>
        <time>2022-10-18T07:21:42Z</time>
      </trkpt>
      <trkpt lat="44.90795" lon="5.24647">
        <ele>784.09</ele>
        <time>2022-10-18T07:21:47Z</time>
      </trkpt>
      <trkpt lat="44.9078" lon="5.24638">
        <ele>784.09</ele>
        <time>2022-10-18T07:22:01Z</time>
      </trkpt>
      <trkpt lat="44.90768" lon="5.2463">
        <ele>784.09</ele>
        <time>2022-10-18T07:22:15Z</time>
      </trkpt>
      <trkpt lat="44.90757" lon="5.24619">
        <ele>784.57</ele>
        <time>2022-10-18T07:22:26Z</time>
      </trkpt>
      <trkpt lat="44.9074" lon="5.24607">
        <ele>786.98</ele>
        <time>2022-10-18T07:22:41Z</time>
      </trkpt>
      <trkpt lat="44.90731" lon="5.24597">
        <ele>788.9</ele>
        <time>2022-10-18T07:22:54Z</time>
      </trkpt>
      <trkpt lat="44.90727" lon="5.24591">
        <ele>789.86</ele>
        <time>2022-10-18T07:22:59Z</time>
      </trkpt>
      <trkpt lat="44.90726" lon="5.24586">
        <ele>789.86</ele>
        <time>2022-10-18T07:23:03Z</time>
      </trkpt>
      <trkpt lat="44.90725" lon="5.24581">
        <ele>790.34</ele>
        <time>2022-10-18T07:23:08Z</time>
      </trkpt>
      <trkpt lat="44.90711" lon="5.2457">
        <ele>792.26</ele>
        <time>2022-10-18T07:23:22Z</time>
      </trkpt>
      <trkpt lat="44.90697" lon="5.24557">
        <ele>793.71</ele>
        <time>2022-10-18T07:23:36Z</time>
      </trkpt>
      <trkpt lat="44.90693" lon="5.24551">
        <ele>794.19</ele>
        <time>2022-10-18T07:23:42Z</time>
      </trkpt>
      <trkpt lat="44.90686" lon="5.24541">
        <ele>796.59</ele>
        <time>2022-10-18T07:23:57Z</time>
      </trkpt>
      <trkpt lat="44.90687" lon="5.24533">
        <ele>797.07</ele>
        <time>2022-10-18T07:24:05Z</time>
      </trkpt>
      <trkpt lat="44.90682" lon="5.24519">
        <ele>797.55</ele>
        <time>2022-10-18T07:24:19Z</time>
      </trkpt>
      <trkpt lat="44.90676" lon="5.24512">
        <ele>798.51</ele>
        <time>2022-10-18T07:24:30Z</time>
      </trkpt>
      <trkpt lat="44.90669" lon="5.24497">
        <ele>800.44</ele>
        <time>2022-10-18T07:24:46Z</time>
      </trkpt>
      <trkpt lat="44.9067" lon="5.24495">
        <ele>800.44</ele>
        <time>2022-10-18T07:24:49Z</time>
      </trkpt>
      <trkpt lat="44.90662" lon="5.24479">
        <ele>802.36</ele>
        <time>2022-10-18T07:25:03Z</time>
      </trkpt>
      <trkpt lat="44.90654" lon="5.24465">
        <ele>803.8</ele>
        <time>2022-10-18T07:25:17Z</time>
      </trkpt>
      <trkpt lat="44.90649" lon="5.24456">
        <ele>805.24</ele>
        <time>2022-10-18T07:25:30Z</time>
      </trkpt>
      <trkpt lat="44.90641" lon="5.24445">
        <ele>807.16</ele>
        <time>2022-10-18T07:25:46Z</time>
      </trkpt>
      <trkpt lat="44.90632" lon="5.24434">
        <ele>809.09</ele>
        <time>2022-10-18T07:26:01Z</time>
      </trkpt>
      <trkpt lat="44.90625" lon="5.24423">
        <ele>811.01</ele>
        <time>2022-10-18T07:26:16Z</time>
      </trkpt>
      <trkpt lat="44.90622" lon="5.24413">
        <ele>811.97</ele>
        <time>2022-10-18T07:26:31Z</time>
      </trkpt>
      <trkpt lat="44.90615" lon="5.24405">
        <ele>814.37</ele>
        <time>2022-10-18T07:26:46Z</time>
      </trkpt>
      <trkpt lat="44.90608" lon="5.24395">
        <ele>816.3</ele>
        <time>2022-10-18T07:27:02Z</time>
      </trkpt>
      <trkpt lat="44.90605" lon="5.24384">
        <ele>818.22</ele>
        <time>2022-10-18T07:27:17Z</time>
      </trkpt>
      <trkpt lat="44.906" lon="5.24375">
        <ele>819.66</ele>
        <time>2022-10-18T07:27:31Z</time>
      </trkpt>
      <trkpt lat="44.90594" lon="5.2437">
        <ele>821.58</ele>
        <time>2022-10-18T07:27:45Z</time>
      </trkpt>
      <trkpt lat="44.90586" lon="5.24362">
        <ele>823.03</ele>
        <time>2022-10-18T07:27:59Z</time>
      </trkpt>
      <trkpt lat="44.90579" lon="5.24359">
        <ele>825.43</ele>
        <time>2022-10-18T07:28:14Z</time>
      </trkpt>
      <trkpt lat="44.90573" lon="5.24352">
        <ele>827.83</ele>
        <time>2022-10-18T07:28:30Z</time>
      </trkpt>
      <trkpt lat="44.90566" lon="5.24343">
        <ele>829.27</ele>
        <time>2022-10-18T07:28:44Z</time>
      </trkpt>
      <trkpt lat="44.90562" lon="5.24337">
        <ele>830.24</ele>
        <time>2022-10-18T07:28:57Z</time>
      </trkpt>
      <trkpt lat="44.90558" lon="5.24327">
        <ele>830.24</ele>
        <time>2022-10-18T07:29:27Z</time>
      </trkpt>
      <trkpt lat="44.90559" lon="5.24328">
        <ele>831.2</ele>
        <time>2022-10-18T07:29:48Z</time>
      </trkpt>
      <trkpt lat="44.90552" lon="5.24323">
        <ele>834.08</ele>
        <time>2022-10-18T07:30:05Z</time>
      </trkpt>
      <trkpt lat="44.9055" lon="5.24316">
        <ele>836.96</ele>
        <time>2022-10-18T07:30:21Z</time>
      </trkpt>
      <trkpt lat="44.90549" lon="5.2431">
        <ele>839.85</ele>
        <time>2022-10-18T07:30:35Z</time>
      </trkpt>
      <trkpt lat="44.90544" lon="5.24303">
        <ele>841.77</ele>
        <time>2022-10-18T07:30:49Z</time>
      </trkpt>
      <trkpt lat="44.9054" lon="5.24298">
        <ele>844.18</ele>
        <time>2022-10-18T07:31:03Z</time>
      </trkpt>
      <trkpt lat="44.90537" lon="5.24293">
        <ele>846.58</ele>
        <time>2022-10-18T07:31:18Z</time>
      </trkpt>
      <trkpt lat="44.90534" lon="5.24283">
        <ele>848.98</ele>
        <time>2022-10-18T07:31:31Z</time>
      </trkpt>
      <trkpt lat="44.90528" lon="5.2427">
        <ele>851.38</ele>
        <time>2022-10-18T07:31:46Z</time>
      </trkpt>
      <trkpt lat="44.90524" lon="5.2426">
        <ele>853.79</ele>
        <time>2022-10-18T07:32:03Z</time>
      </trkpt>
      <trkpt lat="44.90521" lon="5.24252">
        <ele>855.71</ele>
        <time>2022-10-18T07:32:17Z</time>
      </trkpt>
      <trkpt lat="44.90517" lon="5.24242">
        <ele>858.11</ele>
        <time>2022-10-18T07:32:32Z</time>
      </trkpt>
      <trkpt lat="44.90514" lon="5.24233">
        <ele>861</ele>
        <time>2022-10-18T07:32:47Z</time>
      </trkpt>
      <trkpt lat="44.90509" lon="5.24228">
        <ele>863.4</ele>
        <time>2022-10-18T07:33:03Z</time>
      </trkpt>
      <trkpt lat="44.90505" lon="5.24221">
        <ele>866.29</ele>
        <time>2022-10-18T07:33:18Z</time>
      </trkpt>
      <trkpt lat="44.90498" lon="5.24217">
        <ele>868.69</ele>
        <time>2022-10-18T07:33:30Z</time>
      </trkpt>
      <trkpt lat="44.9049" lon="5.24212">
        <ele>870.61</ele>
        <time>2022-10-18T07:33:47Z</time>
      </trkpt>
      <trkpt lat="44.90481" lon="5.24205">
        <ele>873.01</ele>
        <time>2022-10-18T07:34:01Z</time>
      </trkpt>
      <trkpt lat="44.90474" lon="5.24199">
        <ele>875.42</ele>
        <time>2022-10-18T07:34:15Z</time>
      </trkpt>
      <trkpt lat="44.90468" lon="5.24199">
        <ele>876.86</ele>
        <time>2022-10-18T07:34:26Z</time>
      </trkpt>
      <trkpt lat="44.9046" lon="5.24192">
        <ele>877.82</ele>
        <time>2022-10-18T07:34:39Z</time>
      </trkpt>
      <trkpt lat="44.90454" lon="5.24186">
        <ele>879.26</ele>
        <time>2022-10-18T07:34:49Z</time>
      </trkpt>
      <trkpt lat="44.90442" lon="5.24176">
        <ele>879.74</ele>
        <time>2022-10-18T07:35:04Z</time>
      </trkpt>
      <trkpt lat="44.90436" lon="5.24171">
        <ele>880.22</ele>
        <time>2022-10-18T07:35:11Z</time>
      </trkpt>
      <trkpt lat="44.90429" lon="5.24167">
        <ele>880.71</ele>
        <time>2022-10-18T07:35:19Z</time>
      </trkpt>
      <trkpt lat="44.90421" lon="5.2416">
        <ele>882.15</ele>
        <time>2022-10-18T07:35:33Z</time>
      </trkpt>
      <trkpt lat="44.90411" lon="5.24153">
        <ele>882.63</ele>
        <time>2022-10-18T07:35:42Z</time>
      </trkpt>
      <trkpt lat="44.90399" lon="5.24143">
        <ele>885.03</ele>
        <time>2022-10-18T07:35:57Z</time>
      </trkpt>
      <trkpt lat="44.90389" lon="5.24139">
        <ele>887.43</ele>
        <time>2022-10-18T07:36:11Z</time>
      </trkpt>
      <trkpt lat="44.90381" lon="5.24138">
        <ele>889.36</ele>
        <time>2022-10-18T07:36:24Z</time>
      </trkpt>
      <trkpt lat="44.90373" lon="5.24133">
        <ele>892.24</ele>
        <time>2022-10-18T07:36:39Z</time>
      </trkpt>
      <trkpt lat="44.90366" lon="5.24129">
        <ele>895.12</ele>
        <time>2022-10-18T07:36:55Z</time>
      </trkpt>
      <trkpt lat="44.90358" lon="5.24127">
        <ele>897.53</ele>
        <time>2022-10-18T07:37:10Z</time>
      </trkpt>
      <trkpt lat="44.90356" lon="5.24127">
        <ele>898.97</ele>
        <time>2022-10-18T07:37:16Z</time>
      </trkpt>
      <trkpt lat="44.90347" lon="5.24118">
        <ele>900.89</ele>
        <time>2022-10-18T07:37:31Z</time>
      </trkpt>
      <trkpt lat="44.90343" lon="5.24115">
        <ele>902.33</ele>
        <time>2022-10-18T07:37:44Z</time>
      </trkpt>
      <trkpt lat="44.90335" lon="5.2411">
        <ele>904.26</ele>
        <time>2022-10-18T07:37:53Z</time>
      </trkpt>
      <trkpt lat="44.90326" lon="5.24101">
        <ele>906.18</ele>
        <time>2022-10-18T07:38:08Z</time>
      </trkpt>
      <trkpt lat="44.90318" lon="5.2409">
        <ele>908.58</ele>
        <time>2022-10-18T07:38:21Z</time>
      </trkpt>
      <trkpt lat="44.90313" lon="5.24077">
        <ele>910.51</ele>
        <time>2022-10-18T07:38:35Z</time>
      </trkpt>
      <trkpt lat="44.90304" lon="5.24069">
        <ele>911.95</ele>
        <time>2022-10-18T07:38:48Z</time>
      </trkpt>
      <trkpt lat="44.90299" lon="5.24061">
        <ele>914.83</ele>
        <time>2022-10-18T07:39:00Z</time>
      </trkpt>
      <trkpt lat="44.90295" lon="5.24057">
        <ele>916.75</ele>
        <time>2022-10-18T07:39:13Z</time>
      </trkpt>
      <trkpt lat="44.90289" lon="5.24044">
        <ele>919.16</ele>
        <time>2022-10-18T07:39:26Z</time>
      </trkpt>
      <trkpt lat="44.90286" lon="5.24028">
        <ele>921.56</ele>
        <time>2022-10-18T07:39:39Z</time>
      </trkpt>
      <trkpt lat="44.90285" lon="5.24019">
        <ele>923.96</ele>
        <time>2022-10-18T07:39:53Z</time>
      </trkpt>
      <trkpt lat="44.90285" lon="5.24015">
        <ele>926.85</ele>
        <time>2022-10-18T07:40:06Z</time>
      </trkpt>
      <trkpt lat="44.90285" lon="5.24008">
        <ele>927.81</ele>
        <time>2022-10-18T07:41:29Z</time>
      </trkpt>
      <trkpt lat="44.90285" lon="5.24005">
        <ele>927.81</ele>
        <time>2022-10-18T07:41:50Z</time>
      </trkpt>
      <trkpt lat="44.90287" lon="5.23999">
        <ele>927.81</ele>
        <time>2022-10-18T07:42:25Z</time>
      </trkpt>
      <trkpt lat="44.90284" lon="5.2399">
        <ele>929.25</ele>
        <time>2022-10-18T07:42:37Z</time>
      </trkpt>
      <trkpt lat="44.90284" lon="5.23989">
        <ele>929.25</ele>
        <time>2022-10-18T07:42:38Z</time>
      </trkpt>
      <trkpt lat="44.90279" lon="5.2398">
        <ele>931.65</ele>
        <time>2022-10-18T07:42:51Z</time>
      </trkpt>
      <trkpt lat="44.90274" lon="5.23972">
        <ele>934.54</ele>
        <time>2022-10-18T07:43:04Z</time>
      </trkpt>
      <trkpt lat="44.90266" lon="5.23965">
        <ele>936.46</ele>
        <time>2022-10-18T07:43:17Z</time>
      </trkpt>
      <trkpt lat="44.90256" lon="5.23954">
        <ele>939.35</ele>
        <time>2022-10-18T07:43:33Z</time>
      </trkpt>
      <trkpt lat="44.90252" lon="5.23947">
        <ele>942.23</ele>
        <time>2022-10-18T07:43:48Z</time>
      </trkpt>
      <trkpt lat="44.90247" lon="5.23939">
        <ele>944.63</ele>
        <time>2022-10-18T07:44:03Z</time>
      </trkpt>
      <trkpt lat="44.90245" lon="5.23933">
        <ele>947.04</ele>
        <time>2022-10-18T07:44:15Z</time>
      </trkpt>
      <trkpt lat="44.90241" lon="5.23918">
        <ele>949.92</ele>
        <time>2022-10-18T07:44:32Z</time>
      </trkpt>
      <trkpt lat="44.90248" lon="5.23909">
        <ele>951.84</ele>
        <time>2022-10-18T07:44:46Z</time>
      </trkpt>
      <trkpt lat="44.90257" lon="5.23912">
        <ele>953.77</ele>
        <time>2022-10-18T07:44:59Z</time>
      </trkpt>
      <trkpt lat="44.90264" lon="5.23915">
        <ele>955.21</ele>
        <time>2022-10-18T07:45:11Z</time>
      </trkpt>
      <trkpt lat="44.90276" lon="5.23919">
        <ele>957.61</ele>
        <time>2022-10-18T07:45:27Z</time>
      </trkpt>
      <trkpt lat="44.90285" lon="5.23917">
        <ele>958.57</ele>
        <time>2022-10-18T07:45:40Z</time>
      </trkpt>
      <trkpt lat="44.90297" lon="5.23908">
        <ele>960.01</ele>
        <time>2022-10-18T07:45:54Z</time>
      </trkpt>
      <trkpt lat="44.90308" lon="5.23905">
        <ele>962.9</ele>
        <time>2022-10-18T07:46:08Z</time>
      </trkpt>
      <trkpt lat="44.90316" lon="5.23902">
        <ele>965.3</ele>
        <time>2022-10-18T07:46:24Z</time>
      </trkpt>
      <trkpt lat="44.90323" lon="5.23894">
        <ele>968.18</ele>
        <time>2022-10-18T07:46:41Z</time>
      </trkpt>
      <trkpt lat="44.90332" lon="5.23889">
        <ele>971.07</ele>
        <time>2022-10-18T07:46:55Z</time>
      </trkpt>
      <trkpt lat="44.9034" lon="5.23887">
        <ele>973.47</ele>
        <time>2022-10-18T07:47:09Z</time>
      </trkpt>
      <trkpt lat="44.90346" lon="5.23883">
        <ele>975.88</ele>
        <time>2022-10-18T07:47:22Z</time>
      </trkpt>
      <trkpt lat="44.90355" lon="5.23878">
        <ele>978.76</ele>
        <time>2022-10-18T07:47:38Z</time>
      </trkpt>
      <trkpt lat="44.90354" lon="5.2387">
        <ele>981.64</ele>
        <time>2022-10-18T07:47:54Z</time>
      </trkpt>
      <trkpt lat="44.90347" lon="5.23866">
        <ele>984.05</ele>
        <time>2022-10-18T07:48:10Z</time>
      </trkpt>
      <trkpt lat="44.90347" lon="5.23865">
        <ele>984.05</ele>
        <time>2022-10-18T07:48:12Z</time>
      </trkpt>
      <trkpt lat="44.90338" lon="5.23857">
        <ele>986.93</ele>
        <time>2022-10-18T07:48:28Z</time>
      </trkpt>
      <trkpt lat="44.90331" lon="5.23848">
        <ele>987.89</ele>
        <time>2022-10-18T07:48:41Z</time>
      </trkpt>
      <trkpt lat="44.90323" lon="5.23838">
        <ele>990.78</ele>
        <time>2022-10-18T07:48:57Z</time>
      </trkpt>
      <trkpt lat="44.90315" lon="5.23833">
        <ele>993.18</ele>
        <time>2022-10-18T07:49:13Z</time>
      </trkpt>
      <trkpt lat="44.90306" lon="5.23823">
        <ele>996.06</ele>
        <time>2022-10-18T07:49:30Z</time>
      </trkpt>
      <trkpt lat="44.90298" lon="5.23812">
        <ele>998.47</ele>
        <time>2022-10-18T07:49:47Z</time>
      </trkpt>
      <trkpt lat="44.90288" lon="5.23806">
        <ele>1001.35</ele>
        <time>2022-10-18T07:50:04Z</time>
      </trkpt>
      <trkpt lat="44.9028" lon="5.23802">
        <ele>1003.75</ele>
        <time>2022-10-18T07:50:20Z</time>
      </trkpt>
      <trkpt lat="44.90271" lon="5.23797">
        <ele>1006.16</ele>
        <time>2022-10-18T07:50:36Z</time>
      </trkpt>
      <trkpt lat="44.90262" lon="5.23793">
        <ele>1008.08</ele>
        <time>2022-10-18T07:50:52Z</time>
      </trkpt>
      <trkpt lat="44.90251" lon="5.23784">
        <ele>1011.44</ele>
        <time>2022-10-18T07:51:10Z</time>
      </trkpt>
      <trkpt lat="44.9024" lon="5.2378">
        <ele>1013.85</ele>
        <time>2022-10-18T07:51:27Z</time>
      </trkpt>
      <trkpt lat="44.90231" lon="5.23779">
        <ele>1016.73</ele>
        <time>2022-10-18T07:51:43Z</time>
      </trkpt>
      <trkpt lat="44.9022" lon="5.23775">
        <ele>1018.65</ele>
        <time>2022-10-18T07:51:59Z</time>
      </trkpt>
      <trkpt lat="44.90223" lon="5.23762">
        <ele>1021.06</ele>
        <time>2022-10-18T07:52:16Z</time>
      </trkpt>
      <trkpt lat="44.90226" lon="5.23745">
        <ele>1023.94</ele>
        <time>2022-10-18T07:52:31Z</time>
      </trkpt>
      <trkpt lat="44.90232" lon="5.23736">
        <ele>1025.86</ele>
        <time>2022-10-18T07:52:45Z</time>
      </trkpt>
      <trkpt lat="44.9024" lon="5.23734">
        <ele>1028.75</ele>
        <time>2022-10-18T07:53:01Z</time>
      </trkpt>
      <trkpt lat="44.90249" lon="5.23729">
        <ele>1030.67</ele>
        <time>2022-10-18T07:53:16Z</time>
      </trkpt>
      <trkpt lat="44.90257" lon="5.23724">
        <ele>1033.07</ele>
        <time>2022-10-18T07:53:31Z</time>
      </trkpt>
      <trkpt lat="44.90263" lon="5.23718">
        <ele>1035</ele>
        <time>2022-10-18T07:53:43Z</time>
      </trkpt>
      <trkpt lat="44.9027" lon="5.23715">
        <ele>1036.92</ele>
        <time>2022-10-18T07:53:57Z</time>
      </trkpt>
      <trkpt lat="44.90279" lon="5.23713">
        <ele>1039.8</ele>
        <time>2022-10-18T07:54:13Z</time>
      </trkpt>
      <trkpt lat="44.90291" lon="5.23711">
        <ele>1043.17</ele>
        <time>2022-10-18T07:54:32Z</time>
      </trkpt>
      <trkpt lat="44.90303" lon="5.23713">
        <ele>1045.57</ele>
        <time>2022-10-18T07:54:45Z</time>
      </trkpt>
      <trkpt lat="44.90318" lon="5.23712">
        <ele>1047.97</ele>
        <time>2022-10-18T07:55:04Z</time>
      </trkpt>
      <trkpt lat="44.90328" lon="5.23715">
        <ele>1050.38</ele>
        <time>2022-10-18T07:55:20Z</time>
      </trkpt>
      <trkpt lat="44.90337" lon="5.23715">
        <ele>1052.78</ele>
        <time>2022-10-18T07:55:35Z</time>
      </trkpt>
      <trkpt lat="44.90348" lon="5.23714">
        <ele>1054.7</ele>
        <time>2022-10-18T07:55:51Z</time>
      </trkpt>
      <trkpt lat="44.90359" lon="5.23711">
        <ele>1057.11</ele>
        <time>2022-10-18T07:56:06Z</time>
      </trkpt>
      <trkpt lat="44.90368" lon="5.23709">
        <ele>1059.03</ele>
        <time>2022-10-18T07:56:20Z</time>
      </trkpt>
      <trkpt lat="44.90379" lon="5.23705">
        <ele>1060.95</ele>
        <time>2022-10-18T07:56:36Z</time>
      </trkpt>
      <trkpt lat="44.90389" lon="5.23701">
        <ele>1063.84</ele>
        <time>2022-10-18T07:56:52Z</time>
      </trkpt>
      <trkpt lat="44.90399" lon="5.23695">
        <ele>1066.72</ele>
        <time>2022-10-18T07:57:08Z</time>
      </trkpt>
      <trkpt lat="44.90403" lon="5.23688">
        <ele>1068.64</ele>
        <time>2022-10-18T07:57:24Z</time>
      </trkpt>
      <trkpt lat="44.90404" lon="5.23687">
        <ele>1069.6</ele>
        <time>2022-10-18T07:58:13Z</time>
      </trkpt>
      <trkpt lat="44.90399" lon="5.2368">
        <ele>1070.57</ele>
        <time>2022-10-18T07:58:25Z</time>
      </trkpt>
      <trkpt lat="44.90391" lon="5.23675">
        <ele>1072.97</ele>
        <time>2022-10-18T07:58:39Z</time>
      </trkpt>
      <trkpt lat="44.90385" lon="5.2367">
        <ele>1073.93</ele>
        <time>2022-10-18T07:58:48Z</time>
      </trkpt>
      <trkpt lat="44.90375" lon="5.23662">
        <ele>1076.33</ele>
        <time>2022-10-18T07:59:02Z</time>
      </trkpt>
      <trkpt lat="44.90364" lon="5.23659">
        <ele>1078.26</ele>
        <time>2022-10-18T07:59:17Z</time>
      </trkpt>
      <trkpt lat="44.90353" lon="5.23653">
        <ele>1079.7</ele>
        <time>2022-10-18T07:59:31Z</time>
      </trkpt>
      <trkpt lat="44.9034" lon="5.23645">
        <ele>1082.58</ele>
        <time>2022-10-18T07:59:48Z</time>
      </trkpt>
      <trkpt lat="44.90334" lon="5.23643">
        <ele>1083.06</ele>
        <time>2022-10-18T07:59:55Z</time>
      </trkpt>
      <trkpt lat="44.90322" lon="5.23638">
        <ele>1083.54</ele>
        <time>2022-10-18T08:00:09Z</time>
      </trkpt>
      <trkpt lat="44.90308" lon="5.23633">
        <ele>1085.95</ele>
        <time>2022-10-18T08:00:26Z</time>
      </trkpt>
      <trkpt lat="44.90295" lon="5.2363">
        <ele>1086.91</ele>
        <time>2022-10-18T08:00:40Z</time>
      </trkpt>
      <trkpt lat="44.90283" lon="5.23624">
        <ele>1089.31</ele>
        <time>2022-10-18T08:00:55Z</time>
      </trkpt>
      <trkpt lat="44.90271" lon="5.23617">
        <ele>1091.71</ele>
        <time>2022-10-18T08:01:09Z</time>
      </trkpt>
      <trkpt lat="44.90261" lon="5.23613">
        <ele>1093.64</ele>
        <time>2022-10-18T08:01:24Z</time>
      </trkpt>
      <trkpt lat="44.90253" lon="5.23608">
        <ele>1095.56</ele>
        <time>2022-10-18T08:01:37Z</time>
      </trkpt>
      <trkpt lat="44.90245" lon="5.23602">
        <ele>1098.44</ele>
        <time>2022-10-18T08:01:53Z</time>
      </trkpt>
      <trkpt lat="44.90241" lon="5.23592">
        <ele>1101.33</ele>
        <time>2022-10-18T08:02:08Z</time>
      </trkpt>
      <trkpt lat="44.90247" lon="5.23586">
        <ele>1102.77</ele>
        <time>2022-10-18T08:02:21Z</time>
      </trkpt>
      <trkpt lat="44.90257" lon="5.23582">
        <ele>1105.17</ele>
        <time>2022-10-18T08:02:37Z</time>
      </trkpt>
      <trkpt lat="44.90266" lon="5.23574">
        <ele>1107.58</ele>
        <time>2022-10-18T08:02:53Z</time>
      </trkpt>
      <trkpt lat="44.90276" lon="5.23564">
        <ele>1109.5</ele>
        <time>2022-10-18T08:03:07Z</time>
      </trkpt>
      <trkpt lat="44.90284" lon="5.23558">
        <ele>1110.94</ele>
        <time>2022-10-18T08:03:20Z</time>
      </trkpt>
      <trkpt lat="44.90288" lon="5.23555">
        <ele>1112.86</ele>
        <time>2022-10-18T08:03:31Z</time>
      </trkpt>
      <trkpt lat="44.90298" lon="5.23553">
        <ele>1114.79</ele>
        <time>2022-10-18T08:03:44Z</time>
      </trkpt>
      <trkpt lat="44.90311" lon="5.23553">
        <ele>1117.19</ele>
        <time>2022-10-18T08:03:57Z</time>
      </trkpt>
      <trkpt lat="44.90319" lon="5.2355">
        <ele>1118.63</ele>
        <time>2022-10-18T08:04:10Z</time>
      </trkpt>
      <trkpt lat="44.90332" lon="5.23549">
        <ele>1120.07</ele>
        <time>2022-10-18T08:04:25Z</time>
      </trkpt>
      <trkpt lat="44.90343" lon="5.23547">
        <ele>1121.03</ele>
        <time>2022-10-18T08:04:37Z</time>
      </trkpt>
      <trkpt lat="44.90354" lon="5.23548">
        <ele>1123.44</ele>
        <time>2022-10-18T08:04:51Z</time>
      </trkpt>
      <trkpt lat="44.90362" lon="5.23545">
        <ele>1125.36</ele>
        <time>2022-10-18T08:05:06Z</time>
      </trkpt>
      <trkpt lat="44.90373" lon="5.23547">
        <ele>1127.76</ele>
        <time>2022-10-18T08:05:21Z</time>
      </trkpt>
      <trkpt lat="44.90382" lon="5.23548">
        <ele>1128.24</ele>
        <time>2022-10-18T08:05:33Z</time>
      </trkpt>
      <trkpt lat="44.90387" lon="5.23549">
        <ele>1128.73</ele>
        <time>2022-10-18T08:05:47Z</time>
      </trkpt>
      <trkpt lat="44.90398" lon="5.23548">
        <ele>1130.65</ele>
        <time>2022-10-18T08:06:06Z</time>
      </trkpt>
      <trkpt lat="44.90404" lon="5.23546">
        <ele>1134.01</ele>
        <time>2022-10-18T08:06:22Z</time>
      </trkpt>
      <trkpt lat="44.90414" lon="5.23549">
        <ele>1134.97</ele>
        <time>2022-10-18T08:06:36Z</time>
      </trkpt>
      <trkpt lat="44.90421" lon="5.23554">
        <ele>1135.94</ele>
        <time>2022-10-18T08:06:50Z</time>
      </trkpt>
      <trkpt lat="44.90429" lon="5.23555">
        <ele>1136.9</ele>
        <time>2022-10-18T08:07:04Z</time>
      </trkpt>
      <trkpt lat="44.90438" lon="5.23557">
        <ele>1138.82</ele>
        <time>2022-10-18T08:07:19Z</time>
      </trkpt>
      <trkpt lat="44.9045" lon="5.23561">
        <ele>1140.74</ele>
        <time>2022-10-18T08:07:36Z</time>
      </trkpt>
      <trkpt lat="44.90458" lon="5.23562">
        <ele>1142.18</ele>
        <time>2022-10-18T08:07:50Z</time>
      </trkpt>
      <trkpt lat="44.90467" lon="5.23562">
        <ele>1144.11</ele>
        <time>2022-10-18T08:08:04Z</time>
      </trkpt>
      <trkpt lat="44.90474" lon="5.23566">
        <ele>1146.03</ele>
        <time>2022-10-18T08:08:19Z</time>
      </trkpt>
      <trkpt lat="44.90484" lon="5.23568">
        <ele>1148.91</ele>
        <time>2022-10-18T08:08:34Z</time>
      </trkpt>
      <trkpt lat="44.90493" lon="5.2357">
        <ele>1150.84</ele>
        <time>2022-10-18T08:08:51Z</time>
      </trkpt>
      <trkpt lat="44.90502" lon="5.23571">
        <ele>1153.24</ele>
        <time>2022-10-18T08:09:08Z</time>
      </trkpt>
      <trkpt lat="44.90509" lon="5.23574">
        <ele>1155.64</ele>
        <time>2022-10-18T08:09:25Z</time>
      </trkpt>
      <trkpt lat="44.90517" lon="5.23576">
        <ele>1158.05</ele>
        <time>2022-10-18T08:09:39Z</time>
      </trkpt>
      <trkpt lat="44.90525" lon="5.23579">
        <ele>1160.93</ele>
        <time>2022-10-18T08:09:56Z</time>
      </trkpt>
      <trkpt lat="44.90534" lon="5.23579">
        <ele>1162.85</ele>
        <time>2022-10-18T08:10:08Z</time>
      </trkpt>
      <trkpt lat="44.90544" lon="5.23578">
        <ele>1165.26</ele>
        <time>2022-10-18T08:10:25Z</time>
      </trkpt>
      <trkpt lat="44.90551" lon="5.23583">
        <ele>1167.66</ele>
        <time>2022-10-18T08:10:42Z</time>
      </trkpt>
      <trkpt lat="44.90558" lon="5.23584">
        <ele>1169.1</ele>
        <time>2022-10-18T08:10:57Z</time>
      </trkpt>
      <trkpt lat="44.90566" lon="5.23587">
        <ele>1171.5</ele>
        <time>2022-10-18T08:11:12Z</time>
      </trkpt>
      <trkpt lat="44.90573" lon="5.23588">
        <ele>1173.91</ele>
        <time>2022-10-18T08:11:26Z</time>
      </trkpt>
      <trkpt lat="44.90579" lon="5.23587">
        <ele>1175.35</ele>
        <time>2022-10-18T08:11:37Z</time>
      </trkpt>
      <trkpt lat="44.90588" lon="5.23589">
        <ele>1177.27</ele>
        <time>2022-10-18T08:11:51Z</time>
      </trkpt>
      <trkpt lat="44.90599" lon="5.23591">
        <ele>1178.71</ele>
        <time>2022-10-18T08:12:06Z</time>
      </trkpt>
      <trkpt lat="44.90609" lon="5.23596">
        <ele>1180.64</ele>
        <time>2022-10-18T08:12:22Z</time>
      </trkpt>
      <trkpt lat="44.90614" lon="5.23596">
        <ele>1183.52</ele>
        <time>2022-10-18T08:12:39Z</time>
      </trkpt>
      <trkpt lat="44.90619" lon="5.23598">
        <ele>1185.92</ele>
        <time>2022-10-18T08:12:56Z</time>
      </trkpt>
      <trkpt lat="44.90624" lon="5.23601">
        <ele>1187.85</ele>
        <time>2022-10-18T08:13:10Z</time>
      </trkpt>
      <trkpt lat="44.90629" lon="5.23603">
        <ele>1189.77</ele>
        <time>2022-10-18T08:13:25Z</time>
      </trkpt>
      <trkpt lat="44.90636" lon="5.23611">
        <ele>1191.69</ele>
        <time>2022-10-18T08:13:39Z</time>
      </trkpt>
      <trkpt lat="44.90644" lon="5.23615">
        <ele>1194.58</ele>
        <time>2022-10-18T08:13:53Z</time>
      </trkpt>
      <trkpt lat="44.90651" lon="5.23623">
        <ele>1196.02</ele>
        <time>2022-10-18T08:14:09Z</time>
      </trkpt>
      <trkpt lat="44.90661" lon="5.23627">
        <ele>1197.46</ele>
        <time>2022-10-18T08:14:25Z</time>
      </trkpt>
      <trkpt lat="44.90665" lon="5.23627">
        <ele>1198.9</ele>
        <time>2022-10-18T08:14:43Z</time>
      </trkpt>
      <trkpt lat="44.90671" lon="5.23631">
        <ele>1199.38</ele>
        <time>2022-10-18T08:15:01Z</time>
      </trkpt>
      <trkpt lat="44.9068" lon="5.23631">
        <ele>1202.27</ele>
        <time>2022-10-18T08:15:21Z</time>
      </trkpt>
      <trkpt lat="44.90689" lon="5.2363">
        <ele>1205.63</ele>
        <time>2022-10-18T08:15:38Z</time>
      </trkpt>
      <trkpt lat="44.90683" lon="5.23626">
        <ele>1206.59</ele>
        <time>2022-10-18T08:15:56Z</time>
      </trkpt>
      <trkpt lat="44.90679" lon="5.23622">
        <ele>1209.48</ele>
        <time>2022-10-18T08:16:10Z</time>
      </trkpt>
      <trkpt lat="44.90686" lon="5.23617">
        <ele>1213.32</ele>
        <time>2022-10-18T08:16:27Z</time>
      </trkpt>
      <trkpt lat="44.90694" lon="5.23618">
        <ele>1215.24</ele>
        <time>2022-10-18T08:16:44Z</time>
      </trkpt>
      <trkpt lat="44.90699" lon="5.23615">
        <ele>1218.61</ele>
        <time>2022-10-18T08:17:01Z</time>
      </trkpt>
      <trkpt lat="44.90705" lon="5.23616">
        <ele>1220.53</ele>
        <time>2022-10-18T08:17:17Z</time>
      </trkpt>
      <trkpt lat="44.90714" lon="5.23615">
        <ele>1222.93</ele>
        <time>2022-10-18T08:17:33Z</time>
      </trkpt>
      <trkpt lat="44.90722" lon="5.23619">
        <ele>1224.38</ele>
        <time>2022-10-18T08:17:51Z</time>
      </trkpt>
      <trkpt lat="44.90731" lon="5.23623">
        <ele>1224.38</ele>
        <time>2022-10-18T08:18:08Z</time>
      </trkpt>
      <trkpt lat="44.90737" lon="5.23624">
        <ele>1226.78</ele>
        <time>2022-10-18T08:18:23Z</time>
      </trkpt>
      <trkpt lat="44.90745" lon="5.23631">
        <ele>1227.74</ele>
        <time>2022-10-18T08:18:37Z</time>
      </trkpt>
      <trkpt lat="44.9075" lon="5.23641">
        <ele>1226.78</ele>
        <time>2022-10-18T08:18:53Z</time>
      </trkpt>
      <trkpt lat="44.90755" lon="5.23641">
        <ele>1227.26</ele>
        <time>2022-10-18T08:19:06Z</time>
      </trkpt>
      <trkpt lat="44.90762" lon="5.23639">
        <ele>1227.74</ele>
        <time>2022-10-18T08:19:21Z</time>
      </trkpt>
      <trkpt lat="44.9077" lon="5.23632">
        <ele>1229.18</ele>
        <time>2022-10-18T08:19:37Z</time>
      </trkpt>
      <trkpt lat="44.90772" lon="5.23628">
        <ele>1229.66</ele>
        <time>2022-10-18T08:22:37Z</time>
      </trkpt>
      <trkpt lat="44.90772" lon="5.23622">
        <ele>1229.18</ele>
        <time>2022-10-18T08:22:53Z</time>
      </trkpt>
      <trkpt lat="44.90774" lon="5.23616">
        <ele>1229.18</ele>
        <time>2022-10-18T08:23:05Z</time>
      </trkpt>
      <trkpt lat="44.90772" lon="5.23614">
        <ele>1228.7</ele>
        <time>2022-10-18T08:23:18Z</time>
      </trkpt>
      <trkpt lat="44.9077" lon="5.23611">
        <ele>1228.7</ele>
        <time>2022-10-18T08:23:31Z</time>
      </trkpt>
      <trkpt lat="44.90771" lon="5.23607">
        <ele>1227.74</ele>
        <time>2022-10-18T08:23:47Z</time>
      </trkpt>
      <trkpt lat="44.90771" lon="5.23601">
        <ele>1226.78</ele>
        <time>2022-10-18T08:24:01Z</time>
      </trkpt>
      <trkpt lat="44.90774" lon="5.23597">
        <ele>1224.38</ele>
        <time>2022-10-18T08:24:16Z</time>
      </trkpt>
      <trkpt lat="44.90779" lon="5.23591">
        <ele>1222.93</ele>
        <time>2022-10-18T08:24:31Z</time>
      </trkpt>
      <trkpt lat="44.9078" lon="5.23588">
        <ele>1222.45</ele>
        <time>2022-10-18T08:24:48Z</time>
      </trkpt>
      <trkpt lat="44.90783" lon="5.23587">
        <ele>1221.97</ele>
        <time>2022-10-18T08:25:01Z</time>
      </trkpt>
      <trkpt lat="44.90785" lon="5.23581">
        <ele>1221.01</ele>
        <time>2022-10-18T08:25:17Z</time>
      </trkpt>
      <trkpt lat="44.90788" lon="5.23571">
        <ele>1219.57</ele>
        <time>2022-10-18T08:25:31Z</time>
      </trkpt>
      <trkpt lat="44.90793" lon="5.23554">
        <ele>1217.17</ele>
        <time>2022-10-18T08:25:49Z</time>
      </trkpt>
      <trkpt lat="44.90793" lon="5.23544">
        <ele>1216.21</ele>
        <time>2022-10-18T08:26:06Z</time>
      </trkpt>
      <trkpt lat="44.90792" lon="5.23534">
        <ele>1215.72</ele>
        <time>2022-10-18T08:26:18Z</time>
      </trkpt>
      <trkpt lat="44.90798" lon="5.23521">
        <ele>1214.76</ele>
        <time>2022-10-18T08:26:32Z</time>
      </trkpt>
      <trkpt lat="44.90808" lon="5.23503">
        <ele>1212.84</ele>
        <time>2022-10-18T08:26:47Z</time>
      </trkpt>
      <trkpt lat="44.9081" lon="5.23499">
        <ele>1212.84</ele>
        <time>2022-10-18T08:26:50Z</time>
      </trkpt>
      <trkpt lat="44.90814" lon="5.23477">
        <ele>1211.4</ele>
        <time>2022-10-18T08:27:06Z</time>
      </trkpt>
      <trkpt lat="44.90822" lon="5.23459">
        <ele>1211.4</ele>
        <time>2022-10-18T08:27:22Z</time>
      </trkpt>
      <trkpt lat="44.90818" lon="5.2345">
        <ele>1210.92</ele>
        <time>2022-10-18T08:27:35Z</time>
      </trkpt>
      <trkpt lat="44.9081" lon="5.23443">
        <ele>1210.92</ele>
        <time>2022-10-18T08:27:47Z</time>
      </trkpt>
      <trkpt lat="44.90797" lon="5.23427">
        <ele>1211.88</ele>
        <time>2022-10-18T08:28:03Z</time>
      </trkpt>
      <trkpt lat="44.90788" lon="5.23415">
        <ele>1211.88</ele>
        <time>2022-10-18T08:28:19Z</time>
      </trkpt>
      <trkpt lat="44.90777" lon="5.23409">
        <ele>1212.84</ele>
        <time>2022-10-18T08:28:34Z</time>
      </trkpt>
      <trkpt lat="44.90766" lon="5.23405">
        <ele>1214.76</ele>
        <time>2022-10-18T08:28:48Z</time>
      </trkpt>
      <trkpt lat="44.90755" lon="5.23403">
        <ele>1215.24</ele>
        <time>2022-10-18T08:29:01Z</time>
      </trkpt>
      <trkpt lat="44.90743" lon="5.2341">
        <ele>1216.69</ele>
        <time>2022-10-18T08:29:15Z</time>
      </trkpt>
      <trkpt lat="44.90738" lon="5.23407">
        <ele>1216.69</ele>
        <time>2022-10-18T08:29:29Z</time>
      </trkpt>
      <trkpt lat="44.90729" lon="5.23402">
        <ele>1217.65</ele>
        <time>2022-10-18T08:29:42Z</time>
      </trkpt>
      <trkpt lat="44.90717" lon="5.234">
        <ele>1219.09</ele>
        <time>2022-10-18T08:29:56Z</time>
      </trkpt>
      <trkpt lat="44.90705" lon="5.23398">
        <ele>1219.57</ele>
        <time>2022-10-18T08:30:09Z</time>
      </trkpt>
      <trkpt lat="44.90694" lon="5.23399">
        <ele>1220.53</ele>
        <time>2022-10-18T08:30:23Z</time>
      </trkpt>
      <trkpt lat="44.9068" lon="5.23394">
        <ele>1223.42</ele>
        <time>2022-10-18T08:30:40Z</time>
      </trkpt>
      <trkpt lat="44.90668" lon="5.23386">
        <ele>1224.38</ele>
        <time>2022-10-18T08:30:54Z</time>
      </trkpt>
      <trkpt lat="44.90657" lon="5.23377">
        <ele>1225.34</ele>
        <time>2022-10-18T08:31:08Z</time>
      </trkpt>
      <trkpt lat="44.90647" lon="5.23368">
        <ele>1226.3</ele>
        <time>2022-10-18T08:31:21Z</time>
      </trkpt>
      <trkpt lat="44.90637" lon="5.23355">
        <ele>1226.78</ele>
        <time>2022-10-18T08:31:35Z</time>
      </trkpt>
      <trkpt lat="44.90632" lon="5.23349">
        <ele>1227.74</ele>
        <time>2022-10-18T08:31:43Z</time>
      </trkpt>
      <trkpt lat="44.90622" lon="5.23335">
        <ele>1228.22</ele>
        <time>2022-10-18T08:31:58Z</time>
      </trkpt>
      <trkpt lat="44.90611" lon="5.23328">
        <ele>1228.7</ele>
        <time>2022-10-18T08:32:13Z</time>
      </trkpt>
      <trkpt lat="44.90601" lon="5.23324">
        <ele>1230.14</ele>
        <time>2022-10-18T08:32:26Z</time>
      </trkpt>
      <trkpt lat="44.90588" lon="5.23317">
        <ele>1231.11</ele>
        <time>2022-10-18T08:32:43Z</time>
      </trkpt>
      <trkpt lat="44.90578" lon="5.23306">
        <ele>1232.55</ele>
        <time>2022-10-18T08:32:57Z</time>
      </trkpt>
      <trkpt lat="44.90568" lon="5.23301">
        <ele>1234.47</ele>
        <time>2022-10-18T08:33:11Z</time>
      </trkpt>
      <trkpt lat="44.90555" lon="5.23292">
        <ele>1234.47</ele>
        <time>2022-10-18T08:33:25Z</time>
      </trkpt>
      <trkpt lat="44.90544" lon="5.23286">
        <ele>1234.47</ele>
        <time>2022-10-18T08:33:40Z</time>
      </trkpt>
      <trkpt lat="44.90535" lon="5.2328">
        <ele>1235.91</ele>
        <time>2022-10-18T08:33:52Z</time>
      </trkpt>
      <trkpt lat="44.90525" lon="5.23274">
        <ele>1238.32</ele>
        <time>2022-10-18T08:34:07Z</time>
      </trkpt>
      <trkpt lat="44.90512" lon="5.23265">
        <ele>1240.24</ele>
        <time>2022-10-18T08:34:22Z</time>
      </trkpt>
      <trkpt lat="44.90508" lon="5.23264">
        <ele>1241.2</ele>
        <time>2022-10-18T08:34:38Z</time>
      </trkpt>
      <trkpt lat="44.90496" lon="5.23255">
        <ele>1242.16</ele>
        <time>2022-10-18T08:34:53Z</time>
      </trkpt>
      <trkpt lat="44.90485" lon="5.23247">
        <ele>1243.12</ele>
        <time>2022-10-18T08:35:09Z</time>
      </trkpt>
      <trkpt lat="44.90478" lon="5.23235">
        <ele>1243.6</ele>
        <time>2022-10-18T08:35:23Z</time>
      </trkpt>
      <trkpt lat="44.90468" lon="5.23228">
        <ele>1244.56</ele>
        <time>2022-10-18T08:35:36Z</time>
      </trkpt>
      <trkpt lat="44.90458" lon="5.23222">
        <ele>1245.53</ele>
        <time>2022-10-18T08:35:48Z</time>
      </trkpt>
      <trkpt lat="44.90445" lon="5.23217">
        <ele>1245.53</ele>
        <time>2022-10-18T08:36:01Z</time>
      </trkpt>
      <trkpt lat="44.90434" lon="5.2321">
        <ele>1246.49</ele>
        <time>2022-10-18T08:36:15Z</time>
      </trkpt>
      <trkpt lat="44.90422" lon="5.232">
        <ele>1247.45</ele>
        <time>2022-10-18T08:36:30Z</time>
      </trkpt>
      <trkpt lat="44.90411" lon="5.23193">
        <ele>1248.89</ele>
        <time>2022-10-18T08:36:44Z</time>
      </trkpt>
      <trkpt lat="44.90399" lon="5.23189">
        <ele>1248.89</ele>
        <time>2022-10-18T08:36:58Z</time>
      </trkpt>
      <trkpt lat="44.90385" lon="5.23187">
        <ele>1248.89</ele>
        <time>2022-10-18T08:37:13Z</time>
      </trkpt>
      <trkpt lat="44.90374" lon="5.23183">
        <ele>1249.85</ele>
        <time>2022-10-18T08:37:26Z</time>
      </trkpt>
      <trkpt lat="44.90363" lon="5.23179">
        <ele>1252.25</ele>
        <time>2022-10-18T08:37:41Z</time>
      </trkpt>
      <trkpt lat="44.90353" lon="5.23173">
        <ele>1253.7</ele>
        <time>2022-10-18T08:37:55Z</time>
      </trkpt>
      <trkpt lat="44.90343" lon="5.23167">
        <ele>1254.18</ele>
        <time>2022-10-18T08:38:08Z</time>
      </trkpt>
      <trkpt lat="44.90339" lon="5.23164">
        <ele>1254.66</ele>
        <time>2022-10-18T08:38:49Z</time>
      </trkpt>
      <trkpt lat="44.90328" lon="5.23152">
        <ele>1255.62</ele>
        <time>2022-10-18T08:39:03Z</time>
      </trkpt>
      <trkpt lat="44.90316" lon="5.23137">
        <ele>1258.5</ele>
        <time>2022-10-18T08:39:18Z</time>
      </trkpt>
      <trkpt lat="44.90309" lon="5.23126">
        <ele>1258.98</ele>
        <time>2022-10-18T08:39:30Z</time>
      </trkpt>
      <trkpt lat="44.903" lon="5.2311">
        <ele>1260.91</ele>
        <time>2022-10-18T08:39:44Z</time>
      </trkpt>
      <trkpt lat="44.90292" lon="5.23098">
        <ele>1262.35</ele>
        <time>2022-10-18T08:39:58Z</time>
      </trkpt>
      <trkpt lat="44.90283" lon="5.23086">
        <ele>1263.79</ele>
        <time>2022-10-18T08:40:12Z</time>
      </trkpt>
      <trkpt lat="44.90277" lon="5.23077">
        <ele>1264.75</ele>
        <time>2022-10-18T08:40:25Z</time>
      </trkpt>
      <trkpt lat="44.90271" lon="5.23066">
        <ele>1267.16</ele>
        <time>2022-10-18T08:40:38Z</time>
      </trkpt>
      <trkpt lat="44.90264" lon="5.23058">
        <ele>1268.12</ele>
        <time>2022-10-18T08:40:50Z</time>
      </trkpt>
      <trkpt lat="44.90253" lon="5.23047">
        <ele>1270.52</ele>
        <time>2022-10-18T08:41:07Z</time>
      </trkpt>
      <trkpt lat="44.90246" lon="5.23038">
        <ele>1272.92</ele>
        <time>2022-10-18T08:41:21Z</time>
      </trkpt>
      <trkpt lat="44.90234" lon="5.23029">
        <ele>1274.36</ele>
        <time>2022-10-18T08:41:37Z</time>
      </trkpt>
      <trkpt lat="44.90222" lon="5.23019">
        <ele>1275.81</ele>
        <time>2022-10-18T08:41:54Z</time>
      </trkpt>
      <trkpt lat="44.90212" lon="5.23012">
        <ele>1277.73</ele>
        <time>2022-10-18T08:42:08Z</time>
      </trkpt>
      <trkpt lat="44.90204" lon="5.23003">
        <ele>1279.65</ele>
        <time>2022-10-18T08:42:24Z</time>
      </trkpt>
      <trkpt lat="44.90193" lon="5.22992">
        <ele>1281.57</ele>
        <time>2022-10-18T08:42:39Z</time>
      </trkpt>
      <trkpt lat="44.90181" lon="5.22982">
        <ele>1283.5</ele>
        <time>2022-10-18T08:42:54Z</time>
      </trkpt>
      <trkpt lat="44.90173" lon="5.22974">
        <ele>1285.42</ele>
        <time>2022-10-18T08:43:09Z</time>
      </trkpt>
      <trkpt lat="44.90163" lon="5.22966">
        <ele>1286.86</ele>
        <time>2022-10-18T08:43:23Z</time>
      </trkpt>
      <trkpt lat="44.90153" lon="5.22957">
        <ele>1287.82</ele>
        <time>2022-10-18T08:43:36Z</time>
      </trkpt>
      <trkpt lat="44.90145" lon="5.22948">
        <ele>1288.78</ele>
        <time>2022-10-18T08:43:49Z</time>
      </trkpt>
      <trkpt lat="44.90138" lon="5.22942">
        <ele>1289.75</ele>
        <time>2022-10-18T08:44:05Z</time>
      </trkpt>
      <trkpt lat="44.90134" lon="5.22936">
        <ele>1290.71</ele>
        <time>2022-10-18T08:44:24Z</time>
      </trkpt>
      <trkpt lat="44.90125" lon="5.22939">
        <ele>1292.15</ele>
        <time>2022-10-18T08:44:39Z</time>
      </trkpt>
      <trkpt lat="44.90119" lon="5.22934">
        <ele>1292.15</ele>
        <time>2022-10-18T08:44:55Z</time>
      </trkpt>
      <trkpt lat="44.90108" lon="5.22929">
        <ele>1294.55</ele>
        <time>2022-10-18T08:45:10Z</time>
      </trkpt>
      <trkpt lat="44.901" lon="5.22923">
        <ele>1295.99</ele>
        <time>2022-10-18T08:45:24Z</time>
      </trkpt>
      <trkpt lat="44.90091" lon="5.22919">
        <ele>1297.44</ele>
        <time>2022-10-18T08:45:38Z</time>
      </trkpt>
      <trkpt lat="44.90079" lon="5.22907">
        <ele>1298.88</ele>
        <time>2022-10-18T08:45:54Z</time>
      </trkpt>
      <trkpt lat="44.9007" lon="5.22902">
        <ele>1300.32</ele>
        <time>2022-10-18T08:46:06Z</time>
      </trkpt>
      <trkpt lat="44.90062" lon="5.22895">
        <ele>1302.24</ele>
        <time>2022-10-18T08:46:20Z</time>
      </trkpt>
      <trkpt lat="44.9005" lon="5.22893">
        <ele>1304.17</ele>
        <time>2022-10-18T08:46:36Z</time>
      </trkpt>
      <trkpt lat="44.90041" lon="5.22893">
        <ele>1306.09</ele>
        <time>2022-10-18T08:46:50Z</time>
      </trkpt>
      <trkpt lat="44.90031" lon="5.2289">
        <ele>1308.49</ele>
        <time>2022-10-18T08:47:05Z</time>
      </trkpt>
      <trkpt lat="44.90022" lon="5.22889">
        <ele>1309.93</ele>
        <time>2022-10-18T08:47:20Z</time>
      </trkpt>
      <trkpt lat="44.90012" lon="5.22887">
        <ele>1312.82</ele>
        <time>2022-10-18T08:47:36Z</time>
      </trkpt>
      <trkpt lat="44.9" lon="5.22895">
        <ele>1314.26</ele>
        <time>2022-10-18T08:47:52Z</time>
      </trkpt>
      <trkpt lat="44.89995" lon="5.22902">
        <ele>1315.7</ele>
        <time>2022-10-18T08:48:08Z</time>
      </trkpt>
      <trkpt lat="44.89989" lon="5.22903">
        <ele>1317.14</ele>
        <time>2022-10-18T08:48:23Z</time>
      </trkpt>
      <trkpt lat="44.89985" lon="5.22893">
        <ele>1317.62</ele>
        <time>2022-10-18T08:48:36Z</time>
      </trkpt>
      <trkpt lat="44.89977" lon="5.22891">
        <ele>1319.07</ele>
        <time>2022-10-18T08:48:50Z</time>
      </trkpt>
      <trkpt lat="44.89969" lon="5.2289">
        <ele>1321.47</ele>
        <time>2022-10-18T08:49:05Z</time>
      </trkpt>
      <trkpt lat="44.8996" lon="5.22887">
        <ele>1323.39</ele>
        <time>2022-10-18T08:49:19Z</time>
      </trkpt>
      <trkpt lat="44.89951" lon="5.2289">
        <ele>1325.31</ele>
        <time>2022-10-18T08:49:35Z</time>
      </trkpt>
      <trkpt lat="44.89947" lon="5.2289">
        <ele>1327.72</ele>
        <time>2022-10-18T08:49:50Z</time>
      </trkpt>
      <trkpt lat="44.89946" lon="5.22891">
        <ele>1329.16</ele>
        <time>2022-10-18T08:50:03Z</time>
      </trkpt>
      <trkpt lat="44.89943" lon="5.22889">
        <ele>1331.56</ele>
        <time>2022-10-18T08:50:19Z</time>
      </trkpt>
      <trkpt lat="44.89942" lon="5.2289">
        <ele>1333.01</ele>
        <time>2022-10-18T08:50:33Z</time>
      </trkpt>
      <trkpt lat="44.89942" lon="5.22889">
        <ele>1332.04</ele>
        <time>2022-10-18T08:50:54Z</time>
      </trkpt>
      <trkpt lat="44.89941" lon="5.22887">
        <ele>1332.04</ele>
        <time>2022-10-18T08:51:11Z</time>
      </trkpt>
      <trkpt lat="44.8994" lon="5.22897">
        <ele>1332.04</ele>
        <time>2022-10-18T08:51:27Z</time>
      </trkpt>
      <trkpt lat="44.89938" lon="5.22923">
        <ele>1332.52</ele>
        <time>2022-10-18T08:51:44Z</time>
      </trkpt>
      <trkpt lat="44.89935" lon="5.22942">
        <ele>1335.41</ele>
        <time>2022-10-18T08:51:58Z</time>
      </trkpt>
      <trkpt lat="44.89933" lon="5.22959">
        <ele>1337.33</ele>
        <time>2022-10-18T08:52:12Z</time>
      </trkpt>
      <trkpt lat="44.89934" lon="5.22969">
        <ele>1340.7</ele>
        <time>2022-10-18T08:52:21Z</time>
      </trkpt>
      <trkpt lat="44.89936" lon="5.22982">
        <ele>1340.7</ele>
        <time>2022-10-18T08:52:34Z</time>
      </trkpt>
      <trkpt lat="44.89941" lon="5.23">
        <ele>1343.1</ele>
        <time>2022-10-18T08:52:49Z</time>
      </trkpt>
      <trkpt lat="44.89947" lon="5.23019">
        <ele>1344.06</ele>
        <time>2022-10-18T08:53:05Z</time>
      </trkpt>
      <trkpt lat="44.89953" lon="5.23041">
        <ele>1346.94</ele>
        <time>2022-10-18T08:53:22Z</time>
      </trkpt>
      <trkpt lat="44.89958" lon="5.23061">
        <ele>1348.87</ele>
        <time>2022-10-18T08:53:38Z</time>
      </trkpt>
      <trkpt lat="44.89962" lon="5.23078">
        <ele>1350.79</ele>
        <time>2022-10-18T08:53:51Z</time>
      </trkpt>
      <trkpt lat="44.89964" lon="5.23094">
        <ele>1352.23</ele>
        <time>2022-10-18T08:54:05Z</time>
      </trkpt>
      <trkpt lat="44.89964" lon="5.23113">
        <ele>1354.63</ele>
        <time>2022-10-18T08:54:20Z</time>
      </trkpt>
      <trkpt lat="44.89964" lon="5.23114">
        <ele>1353.19</ele>
        <time>2022-10-18T08:54:35Z</time>
      </trkpt>
      <trkpt lat="44.89963" lon="5.23116">
        <ele>1353.19</ele>
        <time>2022-10-18T08:54:52Z</time>
      </trkpt>
      <trkpt lat="44.89958" lon="5.23116">
        <ele>1354.63</ele>
        <time>2022-10-18T08:54:58Z</time>
      </trkpt>
      <trkpt lat="44.89952" lon="5.23117">
        <ele>1353.19</ele>
        <time>2022-10-18T08:55:05Z</time>
      </trkpt>
      <trkpt lat="44.89929" lon="5.23118">
        <ele>1351.27</ele>
        <time>2022-10-18T08:55:25Z</time>
      </trkpt>
      <trkpt lat="44.89921" lon="5.23114">
        <ele>1350.79</ele>
        <time>2022-10-18T08:55:36Z</time>
      </trkpt>
      <trkpt lat="44.89911" lon="5.23107">
        <ele>1348.87</ele>
        <time>2022-10-18T08:55:47Z</time>
      </trkpt>
      <trkpt lat="44.89905" lon="5.23108">
        <ele>1346.94</ele>
        <time>2022-10-18T08:56:02Z</time>
      </trkpt>
      <trkpt lat="44.89904" lon="5.23108">
        <ele>1347.91</ele>
        <time>2022-10-18T08:59:01Z</time>
      </trkpt>
      <trkpt lat="44.89902" lon="5.23117">
        <ele>1347.43</ele>
        <time>2022-10-18T08:59:20Z</time>
      </trkpt>
      <trkpt lat="44.89902" lon="5.23118">
        <ele>1347.43</ele>
        <time>2022-10-18T08:59:21Z</time>
      </trkpt>
      <trkpt lat="44.899" lon="5.23121">
        <ele>1348.87</ele>
        <time>2022-10-18T08:59:30Z</time>
      </trkpt>
      <trkpt lat="44.89898" lon="5.23121">
        <ele>1346.94</ele>
        <time>2022-10-18T08:59:34Z</time>
      </trkpt>
      <trkpt lat="44.89895" lon="5.2313">
        <ele>1344.06</ele>
        <time>2022-10-18T08:59:46Z</time>
      </trkpt>
      <trkpt lat="44.8989" lon="5.23147">
        <ele>1340.7</ele>
        <time>2022-10-18T09:00:02Z</time>
      </trkpt>
      <trkpt lat="44.89888" lon="5.23158">
        <ele>1337.33</ele>
        <time>2022-10-18T09:00:13Z</time>
      </trkpt>
      <trkpt lat="44.89882" lon="5.23172">
        <ele>1334.45</ele>
        <time>2022-10-18T09:00:27Z</time>
      </trkpt>
      <trkpt lat="44.89879" lon="5.23174">
        <ele>1333.49</ele>
        <time>2022-10-18T09:00:42Z</time>
      </trkpt>
      <trkpt lat="44.89879" lon="5.23175">
        <ele>1333.97</ele>
        <time>2022-10-18T09:01:03Z</time>
      </trkpt>
      <trkpt lat="44.89879" lon="5.23177">
        <ele>1333.01</ele>
        <time>2022-10-18T09:01:30Z</time>
      </trkpt>
      <trkpt lat="44.89875" lon="5.23185">
        <ele>1330.6</ele>
        <time>2022-10-18T09:01:43Z</time>
      </trkpt>
      <trkpt lat="44.89867" lon="5.23196">
        <ele>1327.72</ele>
        <time>2022-10-18T09:01:59Z</time>
      </trkpt>
      <trkpt lat="44.89861" lon="5.23205">
        <ele>1324.83</ele>
        <time>2022-10-18T09:02:11Z</time>
      </trkpt>
      <trkpt lat="44.89854" lon="5.23216">
        <ele>1324.35</ele>
        <time>2022-10-18T09:02:25Z</time>
      </trkpt>
      <trkpt lat="44.89854" lon="5.23217">
        <ele>1324.35</ele>
        <time>2022-10-18T09:02:26Z</time>
      </trkpt>
      <trkpt lat="44.89842" lon="5.23244">
        <ele>1322.43</ele>
        <time>2022-10-18T09:02:46Z</time>
      </trkpt>
      <trkpt lat="44.89834" lon="5.2327">
        <ele>1321.47</ele>
        <time>2022-10-18T09:03:04Z</time>
      </trkpt>
      <trkpt lat="44.89827" lon="5.23293">
        <ele>1319.55</ele>
        <time>2022-10-18T09:03:21Z</time>
      </trkpt>
      <trkpt lat="44.89818" lon="5.23317">
        <ele>1317.62</ele>
        <time>2022-10-18T09:03:38Z</time>
      </trkpt>
      <trkpt lat="44.89807" lon="5.23341">
        <ele>1316.18</ele>
        <time>2022-10-18T09:03:56Z</time>
      </trkpt>
      <trkpt lat="44.89803" lon="5.23347">
        <ele>1315.7</ele>
        <time>2022-10-18T09:04:03Z</time>
      </trkpt>
      <trkpt lat="44.89802" lon="5.23349">
        <ele>1315.7</ele>
        <time>2022-10-18T09:04:05Z</time>
      </trkpt>
      <trkpt lat="44.89787" lon="5.23369">
        <ele>1314.26</ele>
        <time>2022-10-18T09:04:24Z</time>
      </trkpt>
      <trkpt lat="44.89772" lon="5.23386">
        <ele>1313.3</ele>
        <time>2022-10-18T09:04:42Z</time>
      </trkpt>
      <trkpt lat="44.89771" lon="5.2339">
        <ele>1314.74</ele>
        <time>2022-10-18T09:13:43Z</time>
      </trkpt>
      <trkpt lat="44.89771" lon="5.2339">
        <ele>1314.74</ele>
        <time>2022-10-18T09:13:44Z</time>
      </trkpt>
      <trkpt lat="44.89766" lon="5.23398">
        <ele>1317.14</ele>
        <time>2022-10-18T09:13:59Z</time>
      </trkpt>
      <trkpt lat="44.89768" lon="5.23406">
        <ele>1320.51</ele>
        <time>2022-10-18T09:14:14Z</time>
      </trkpt>
      <trkpt lat="44.89767" lon="5.23413">
        <ele>1322.43</ele>
        <time>2022-10-18T09:14:30Z</time>
      </trkpt>
      <trkpt lat="44.89765" lon="5.23422">
        <ele>1326.28</ele>
        <time>2022-10-18T09:14:46Z</time>
      </trkpt>
      <trkpt lat="44.8976" lon="5.23431">
        <ele>1327.72</ele>
        <time>2022-10-18T09:15:03Z</time>
      </trkpt>
      <trkpt lat="44.8976" lon="5.23439">
        <ele>1331.08</ele>
        <time>2022-10-18T09:15:16Z</time>
      </trkpt>
      <trkpt lat="44.89755" lon="5.23446">
        <ele>1333.49</ele>
        <time>2022-10-18T09:15:32Z</time>
      </trkpt>
      <trkpt lat="44.89749" lon="5.23452">
        <ele>1336.85</ele>
        <time>2022-10-18T09:15:50Z</time>
      </trkpt>
      <trkpt lat="44.89741" lon="5.23457">
        <ele>1340.22</ele>
        <time>2022-10-18T09:16:10Z</time>
      </trkpt>
      <trkpt lat="44.89734" lon="5.23461">
        <ele>1341.66</ele>
        <time>2022-10-18T09:16:25Z</time>
      </trkpt>
      <trkpt lat="44.89727" lon="5.23465">
        <ele>1344.54</ele>
        <time>2022-10-18T09:16:43Z</time>
      </trkpt>
      <trkpt lat="44.8972" lon="5.23466">
        <ele>1345.98</ele>
        <time>2022-10-18T09:17:00Z</time>
      </trkpt>
      <trkpt lat="44.8971" lon="5.23473">
        <ele>1348.39</ele>
        <time>2022-10-18T09:17:21Z</time>
      </trkpt>
      <trkpt lat="44.89702" lon="5.23476">
        <ele>1350.79</ele>
        <time>2022-10-18T09:17:38Z</time>
      </trkpt>
      <trkpt lat="44.897" lon="5.23477">
        <ele>1352.23</ele>
        <time>2022-10-18T09:17:45Z</time>
      </trkpt>
      <trkpt lat="44.89696" lon="5.23482">
        <ele>1353.67</ele>
        <time>2022-10-18T09:17:59Z</time>
      </trkpt>
      <trkpt lat="44.89689" lon="5.23485">
        <ele>1356.08</ele>
        <time>2022-10-18T09:18:14Z</time>
      </trkpt>
      <trkpt lat="44.89679" lon="5.2349">
        <ele>1358.48</ele>
        <time>2022-10-18T09:18:33Z</time>
      </trkpt>
      <trkpt lat="44.89673" lon="5.23496">
        <ele>1361.36</ele>
        <time>2022-10-18T09:18:51Z</time>
      </trkpt>
      <trkpt lat="44.89661" lon="5.23502">
        <ele>1362.81</ele>
        <time>2022-10-18T09:19:10Z</time>
      </trkpt>
      <trkpt lat="44.89655" lon="5.23505">
        <ele>1364.73</ele>
        <time>2022-10-18T09:19:24Z</time>
      </trkpt>
      <trkpt lat="44.89647" lon="5.23511">
        <ele>1366.17</ele>
        <time>2022-10-18T09:19:42Z</time>
      </trkpt>
      <trkpt lat="44.89642" lon="5.23516">
        <ele>1369.05</ele>
        <time>2022-10-18T09:19:57Z</time>
      </trkpt>
      <trkpt lat="44.89635" lon="5.23522">
        <ele>1371.46</ele>
        <time>2022-10-18T09:20:12Z</time>
      </trkpt>
      <trkpt lat="44.8963" lon="5.23524">
        <ele>1371.46</ele>
        <time>2022-10-18T09:20:26Z</time>
      </trkpt>
      <trkpt lat="44.89629" lon="5.23523">
        <ele>1371.46</ele>
        <time>2022-10-18T09:20:56Z</time>
      </trkpt>
      <trkpt lat="44.89622" lon="5.23526">
        <ele>1371.94</ele>
        <time>2022-10-18T09:21:11Z</time>
      </trkpt>
      <trkpt lat="44.89621" lon="5.23526">
        <ele>1371.94</ele>
        <time>2022-10-18T09:21:13Z</time>
      </trkpt>
      <trkpt lat="44.89608" lon="5.23531">
        <ele>1372.9</ele>
        <time>2022-10-18T09:21:29Z</time>
      </trkpt>
      <trkpt lat="44.89597" lon="5.23534">
        <ele>1375.3</ele>
        <time>2022-10-18T09:21:45Z</time>
      </trkpt>
      <trkpt lat="44.89585" lon="5.23538">
        <ele>1375.78</ele>
        <time>2022-10-18T09:22:00Z</time>
      </trkpt>
      <trkpt lat="44.89575" lon="5.23542">
        <ele>1377.23</ele>
        <time>2022-10-18T09:22:14Z</time>
      </trkpt>
      <trkpt lat="44.89563" lon="5.23544">
        <ele>1378.19</ele>
        <time>2022-10-18T09:22:28Z</time>
      </trkpt>
      <trkpt lat="44.89555" lon="5.23546">
        <ele>1379.15</ele>
        <time>2022-10-18T09:22:44Z</time>
      </trkpt>
      <trkpt lat="44.89552" lon="5.23547">
        <ele>1379.15</ele>
        <time>2022-10-18T09:23:03Z</time>
      </trkpt>
      <trkpt lat="44.89554" lon="5.23547">
        <ele>1380.11</ele>
        <time>2022-10-18T09:24:56Z</time>
      </trkpt>
      <trkpt lat="44.89559" lon="5.23549">
        <ele>1381.07</ele>
        <time>2022-10-18T09:25:11Z</time>
      </trkpt>
      <trkpt lat="44.89567" lon="5.23554">
        <ele>1383.96</ele>
        <time>2022-10-18T09:25:28Z</time>
      </trkpt>
      <trkpt lat="44.89571" lon="5.23555">
        <ele>1384.92</ele>
        <time>2022-10-18T09:25:35Z</time>
      </trkpt>
      <trkpt lat="44.89581" lon="5.23558">
        <ele>1386.84</ele>
        <time>2022-10-18T09:25:52Z</time>
      </trkpt>
      <trkpt lat="44.89589" lon="5.23559">
        <ele>1388.28</ele>
        <time>2022-10-18T09:26:06Z</time>
      </trkpt>
      <trkpt lat="44.89597" lon="5.23563">
        <ele>1391.17</ele>
        <time>2022-10-18T09:26:22Z</time>
      </trkpt>
      <trkpt lat="44.89603" lon="5.23566">
        <ele>1394.05</ele>
        <time>2022-10-18T09:26:38Z</time>
      </trkpt>
      <trkpt lat="44.89609" lon="5.23569">
        <ele>1395.01</ele>
        <time>2022-10-18T09:26:51Z</time>
      </trkpt>
      <trkpt lat="44.89612" lon="5.23574">
        <ele>1396.93</ele>
        <time>2022-10-18T09:27:07Z</time>
      </trkpt>
      <trkpt lat="44.89622" lon="5.23575">
        <ele>1399.34</ele>
        <time>2022-10-18T09:27:23Z</time>
      </trkpt>
      <trkpt lat="44.89629" lon="5.23579">
        <ele>1402.22</ele>
        <time>2022-10-18T09:27:37Z</time>
      </trkpt>
      <trkpt lat="44.89639" lon="5.2358">
        <ele>1402.7</ele>
        <time>2022-10-18T09:27:52Z</time>
      </trkpt>
      <trkpt lat="44.89639" lon="5.2358">
        <ele>1403.18</ele>
        <time>2022-10-18T09:28:18Z</time>
      </trkpt>
      <trkpt lat="44.8964" lon="5.2358">
        <ele>1403.66</ele>
        <time>2022-10-18T09:28:42Z</time>
      </trkpt>
      <trkpt lat="44.89645" lon="5.23579">
        <ele>1403.66</ele>
        <time>2022-10-18T09:28:55Z</time>
      </trkpt>
      <trkpt lat="44.89648" lon="5.23581">
        <ele>1403.66</ele>
        <time>2022-10-18T09:29:10Z</time>
      </trkpt>
      <trkpt lat="44.89657" lon="5.23586">
        <ele>1406.07</ele>
        <time>2022-10-18T09:29:26Z</time>
      </trkpt>
      <trkpt lat="44.89658" lon="5.23591">
        <ele>1406.55</ele>
        <time>2022-10-18T09:29:41Z</time>
      </trkpt>
      <trkpt lat="44.89654" lon="5.23596">
        <ele>1409.91</ele>
        <time>2022-10-18T09:29:55Z</time>
      </trkpt>
      <trkpt lat="44.8965" lon="5.236">
        <ele>1412.31</ele>
        <time>2022-10-18T09:30:06Z</time>
      </trkpt>
      <trkpt lat="44.89643" lon="5.23604">
        <ele>1415.68</ele>
        <time>2022-10-18T09:30:22Z</time>
      </trkpt>
      <trkpt lat="44.89639" lon="5.23609">
        <ele>1419.04</ele>
        <time>2022-10-18T09:30:37Z</time>
      </trkpt>
      <trkpt lat="44.8963" lon="5.23615">
        <ele>1422.41</ele>
        <time>2022-10-18T09:30:57Z</time>
      </trkpt>
      <trkpt lat="44.89622" lon="5.2362">
        <ele>1423.85</ele>
        <time>2022-10-18T09:31:14Z</time>
      </trkpt>
      <trkpt lat="44.89616" lon="5.23624">
        <ele>1426.25</ele>
        <time>2022-10-18T09:31:34Z</time>
      </trkpt>
      <trkpt lat="44.89613" lon="5.23629">
        <ele>1428.66</ele>
        <time>2022-10-18T09:31:48Z</time>
      </trkpt>
      <trkpt lat="44.89608" lon="5.23634">
        <ele>1431.54</ele>
        <time>2022-10-18T09:32:04Z</time>
      </trkpt>
      <trkpt lat="44.89604" lon="5.23639">
        <ele>1433.94</ele>
        <time>2022-10-18T09:32:21Z</time>
      </trkpt>
      <trkpt lat="44.89601" lon="5.23644">
        <ele>1436.83</ele>
        <time>2022-10-18T09:32:32Z</time>
      </trkpt>
      <trkpt lat="44.89595" lon="5.23651">
        <ele>1439.23</ele>
        <time>2022-10-18T09:32:48Z</time>
      </trkpt>
      <trkpt lat="44.89591" lon="5.23657">
        <ele>1441.63</ele>
        <time>2022-10-18T09:33:04Z</time>
      </trkpt>
      <trkpt lat="44.8959" lon="5.23664">
        <ele>1445</ele>
        <time>2022-10-18T09:33:19Z</time>
      </trkpt>
      <trkpt lat="44.89588" lon="5.2367">
        <ele>1447.88</ele>
        <time>2022-10-18T09:33:32Z</time>
      </trkpt>
      <trkpt lat="44.89581" lon="5.23676">
        <ele>1450.29</ele>
        <time>2022-10-18T09:33:52Z</time>
      </trkpt>
      <trkpt lat="44.89575" lon="5.2368">
        <ele>1453.65</ele>
        <time>2022-10-18T09:34:10Z</time>
      </trkpt>
      <trkpt lat="44.8957" lon="5.23685">
        <ele>1456.05</ele>
        <time>2022-10-18T09:34:27Z</time>
      </trkpt>
      <trkpt lat="44.89564" lon="5.23689">
        <ele>1458.94</ele>
        <time>2022-10-18T09:34:44Z</time>
      </trkpt>
      <trkpt lat="44.8956" lon="5.23694">
        <ele>1461.82</ele>
        <time>2022-10-18T09:35:02Z</time>
      </trkpt>
      <trkpt lat="44.89553" lon="5.23699">
        <ele>1464.23</ele>
        <time>2022-10-18T09:35:19Z</time>
      </trkpt>
      <trkpt lat="44.89547" lon="5.23702">
        <ele>1466.15</ele>
        <time>2022-10-18T09:35:36Z</time>
      </trkpt>
      <trkpt lat="44.89542" lon="5.23706">
        <ele>1468.55</ele>
        <time>2022-10-18T09:35:50Z</time>
      </trkpt>
      <trkpt lat="44.89538" lon="5.23711">
        <ele>1471.44</ele>
        <time>2022-10-18T09:36:08Z</time>
      </trkpt>
      <trkpt lat="44.89535" lon="5.23715">
        <ele>1473.84</ele>
        <time>2022-10-18T09:36:22Z</time>
      </trkpt>
      <trkpt lat="44.8953" lon="5.2372">
        <ele>1475.76</ele>
        <time>2022-10-18T09:36:37Z</time>
      </trkpt>
      <trkpt lat="44.89526" lon="5.23724">
        <ele>1477.68</ele>
        <time>2022-10-18T09:36:53Z</time>
      </trkpt>
      <trkpt lat="44.89523" lon="5.23729">
        <ele>1480.57</ele>
        <time>2022-10-18T09:37:09Z</time>
      </trkpt>
      <trkpt lat="44.8952" lon="5.23734">
        <ele>1483.45</ele>
        <time>2022-10-18T09:37:25Z</time>
      </trkpt>
      <trkpt lat="44.89517" lon="5.23737">
        <ele>1485.85</ele>
        <time>2022-10-18T09:37:38Z</time>
      </trkpt>
      <trkpt lat="44.89513" lon="5.23741">
        <ele>1487.78</ele>
        <time>2022-10-18T09:37:54Z</time>
      </trkpt>
      <trkpt lat="44.89508" lon="5.23747">
        <ele>1491.14</ele>
        <time>2022-10-18T09:38:13Z</time>
      </trkpt>
      <trkpt lat="44.89505" lon="5.23752">
        <ele>1493.55</ele>
        <time>2022-10-18T09:38:29Z</time>
      </trkpt>
      <trkpt lat="44.89498" lon="5.23754">
        <ele>1495.47</ele>
        <time>2022-10-18T09:38:45Z</time>
      </trkpt>
      <trkpt lat="44.89495" lon="5.23757">
        <ele>1496.43</ele>
        <time>2022-10-18T09:38:57Z</time>
      </trkpt>
      <trkpt lat="44.89492" lon="5.23759">
        <ele>1498.35</ele>
        <time>2022-10-18T09:39:10Z</time>
      </trkpt>
      <trkpt lat="44.8949" lon="5.23761">
        <ele>1500.76</ele>
        <time>2022-10-18T09:39:25Z</time>
      </trkpt>
      <trkpt lat="44.89488" lon="5.23765">
        <ele>1502.2</ele>
        <time>2022-10-18T09:39:40Z</time>
      </trkpt>
      <trkpt lat="44.89484" lon="5.23766">
        <ele>1503.64</ele>
        <time>2022-10-18T09:39:54Z</time>
      </trkpt>
      <trkpt lat="44.89481" lon="5.2377">
        <ele>1506.52</ele>
        <time>2022-10-18T09:40:10Z</time>
      </trkpt>
      <trkpt lat="44.89474" lon="5.23777">
        <ele>1509.41</ele>
        <time>2022-10-18T09:40:27Z</time>
      </trkpt>
      <trkpt lat="44.89472" lon="5.23779">
        <ele>1511.33</ele>
        <time>2022-10-18T09:40:42Z</time>
      </trkpt>
      <trkpt lat="44.89466" lon="5.23781">
        <ele>1513.73</ele>
        <time>2022-10-18T09:40:58Z</time>
      </trkpt>
      <trkpt lat="44.89462" lon="5.23784">
        <ele>1516.14</ele>
        <time>2022-10-18T09:41:14Z</time>
      </trkpt>
      <trkpt lat="44.89464" lon="5.2379">
        <ele>1518.54</ele>
        <time>2022-10-18T09:41:30Z</time>
      </trkpt>
      <trkpt lat="44.89464" lon="5.23793">
        <ele>1519.02</ele>
        <time>2022-10-18T09:41:47Z</time>
      </trkpt>
      <trkpt lat="44.89463" lon="5.23793">
        <ele>1519.5</ele>
        <time>2022-10-18T09:42:05Z</time>
      </trkpt>
      <trkpt lat="44.89462" lon="5.23793">
        <ele>1518.54</ele>
        <time>2022-10-18T09:43:11Z</time>
      </trkpt>
      <trkpt lat="44.89461" lon="5.2379">
        <ele>1520.46</ele>
        <time>2022-10-18T09:43:27Z</time>
      </trkpt>
      <trkpt lat="44.8946" lon="5.23794">
        <ele>1519.5</ele>
        <time>2022-10-18T09:46:40Z</time>
      </trkpt>
      <trkpt lat="44.89459" lon="5.23805">
        <ele>1519.5</ele>
        <time>2022-10-18T09:46:53Z</time>
      </trkpt>
      <trkpt lat="44.89459" lon="5.23806">
        <ele>1519.5</ele>
        <time>2022-10-18T09:46:54Z</time>
      </trkpt>
      <trkpt lat="44.8945" lon="5.23827">
        <ele>1518.54</ele>
        <time>2022-10-18T09:47:13Z</time>
      </trkpt>
      <trkpt lat="44.89443" lon="5.23845">
        <ele>1518.54</ele>
        <time>2022-10-18T09:47:27Z</time>
      </trkpt>
      <trkpt lat="44.89437" lon="5.23867">
        <ele>1518.06</ele>
        <time>2022-10-18T09:47:44Z</time>
      </trkpt>
      <trkpt lat="44.89429" lon="5.23886">
        <ele>1517.58</ele>
        <time>2022-10-18T09:48:02Z</time>
      </trkpt>
      <trkpt lat="44.89424" lon="5.23904">
        <ele>1516.62</ele>
        <time>2022-10-18T09:48:19Z</time>
      </trkpt>
      <trkpt lat="44.89423" lon="5.23906">
        <ele>1515.66</ele>
        <time>2022-10-18T09:48:38Z</time>
      </trkpt>
      <trkpt lat="44.89424" lon="5.23909">
        <ele>1515.66</ele>
        <time>2022-10-18T09:48:43Z</time>
      </trkpt>
      <trkpt lat="44.89423" lon="5.2392">
        <ele>1515.66</ele>
        <time>2022-10-18T09:48:56Z</time>
      </trkpt>
      <trkpt lat="44.89422" lon="5.2394">
        <ele>1514.21</ele>
        <time>2022-10-18T09:49:14Z</time>
      </trkpt>
      <trkpt lat="44.89422" lon="5.23949">
        <ele>1514.21</ele>
        <time>2022-10-18T09:49:30Z</time>
      </trkpt>
      <trkpt lat="44.89421" lon="5.23956">
        <ele>1513.25</ele>
        <time>2022-10-18T09:49:47Z</time>
      </trkpt>
      <trkpt lat="44.89417" lon="5.23969">
        <ele>1512.77</ele>
        <time>2022-10-18T09:50:02Z</time>
      </trkpt>
      <trkpt lat="44.89415" lon="5.23977">
        <ele>1511.81</ele>
        <time>2022-10-18T09:50:10Z</time>
      </trkpt>
      <trkpt lat="44.89414" lon="5.23988">
        <ele>1511.81</ele>
        <time>2022-10-18T09:50:19Z</time>
      </trkpt>
      <trkpt lat="44.89413" lon="5.23992">
        <ele>1511.81</ele>
        <time>2022-10-18T09:50:23Z</time>
      </trkpt>
      <trkpt lat="44.89413" lon="5.24003">
        <ele>1513.25</ele>
        <time>2022-10-18T09:50:31Z</time>
      </trkpt>
      <trkpt lat="44.89412" lon="5.24024">
        <ele>1513.73</ele>
        <time>2022-10-18T09:50:46Z</time>
      </trkpt>
      <trkpt lat="44.89409" lon="5.24037">
        <ele>1514.21</ele>
        <time>2022-10-18T09:50:56Z</time>
      </trkpt>
      <trkpt lat="44.89406" lon="5.24063">
        <ele>1514.21</ele>
        <time>2022-10-18T09:51:13Z</time>
      </trkpt>
      <trkpt lat="44.89405" lon="5.24084">
        <ele>1514.21</ele>
        <time>2022-10-18T09:51:28Z</time>
      </trkpt>
      <trkpt lat="44.89405" lon="5.24101">
        <ele>1514.69</ele>
        <time>2022-10-18T09:51:41Z</time>
      </trkpt>
      <trkpt lat="44.89407" lon="5.24119">
        <ele>1515.66</ele>
        <time>2022-10-18T09:51:57Z</time>
      </trkpt>
      <trkpt lat="44.89408" lon="5.24132">
        <ele>1517.1</ele>
        <time>2022-10-18T09:52:11Z</time>
      </trkpt>
      <trkpt lat="44.89412" lon="5.24143">
        <ele>1519.98</ele>
        <time>2022-10-18T09:52:23Z</time>
      </trkpt>
      <trkpt lat="44.89413" lon="5.24147">
        <ele>1519.98</ele>
        <time>2022-10-18T09:52:26Z</time>
      </trkpt>
      <trkpt lat="44.89413" lon="5.24156">
        <ele>1520.94</ele>
        <time>2022-10-18T09:52:34Z</time>
      </trkpt>
      <trkpt lat="44.89414" lon="5.24175">
        <ele>1521.42</ele>
        <time>2022-10-18T09:52:49Z</time>
      </trkpt>
      <trkpt lat="44.89413" lon="5.24178">
        <ele>1521.9</ele>
        <time>2022-10-18T09:52:51Z</time>
      </trkpt>
      <trkpt lat="44.89414" lon="5.24195">
        <ele>1525.27</ele>
        <time>2022-10-18T09:53:07Z</time>
      </trkpt>
      <trkpt lat="44.89419" lon="5.24208">
        <ele>1528.15</ele>
        <time>2022-10-18T09:53:23Z</time>
      </trkpt>
      <trkpt lat="44.89426" lon="5.24221">
        <ele>1530.56</ele>
        <time>2022-10-18T09:53:42Z</time>
      </trkpt>
      <trkpt lat="44.89431" lon="5.2423">
        <ele>1532.96</ele>
        <time>2022-10-18T09:53:59Z</time>
      </trkpt>
      <trkpt lat="44.89436" lon="5.2424">
        <ele>1535.84</ele>
        <time>2022-10-18T09:54:13Z</time>
      </trkpt>
      <trkpt lat="44.89436" lon="5.24241">
        <ele>1537.29</ele>
        <time>2022-10-18T09:54:15Z</time>
      </trkpt>
      <trkpt lat="44.89436" lon="5.24242">
        <ele>1538.25</ele>
        <time>2022-10-18T09:54:17Z</time>
      </trkpt>
      <trkpt lat="44.89432" lon="5.24251">
        <ele>1537.77</ele>
        <time>2022-10-18T09:54:27Z</time>
      </trkpt>
      <trkpt lat="44.89429" lon="5.24255">
        <ele>1537.77</ele>
        <time>2022-10-18T09:54:32Z</time>
      </trkpt>
      <trkpt lat="44.89424" lon="5.24263">
        <ele>1540.17</ele>
        <time>2022-10-18T09:54:41Z</time>
      </trkpt>
      <trkpt lat="44.89422" lon="5.24267">
        <ele>1540.17</ele>
        <time>2022-10-18T09:54:56Z</time>
      </trkpt>
      <trkpt lat="44.89422" lon="5.24267">
        <ele>1542.09</ele>
        <time>2022-10-18T09:55:08Z</time>
      </trkpt>
      <trkpt lat="44.89423" lon="5.24268">
        <ele>1542.09</ele>
        <time>2022-10-18T09:55:36Z</time>
      </trkpt>
      <trkpt lat="44.89421" lon="5.2427">
        <ele>1542.09</ele>
        <time>2022-10-18T09:55:40Z</time>
      </trkpt>
      <trkpt lat="44.89417" lon="5.24272">
        <ele>1542.09</ele>
        <time>2022-10-18T09:55:46Z</time>
      </trkpt>
      <trkpt lat="44.89416" lon="5.24274">
        <ele>1538.73</ele>
        <time>2022-10-18T09:55:48Z</time>
      </trkpt>
      <trkpt lat="44.89415" lon="5.24275">
        <ele>1537.77</ele>
        <time>2022-10-18T09:55:50Z</time>
      </trkpt>
      <trkpt lat="44.89413" lon="5.24276">
        <ele>1538.73</ele>
        <time>2022-10-18T09:55:52Z</time>
      </trkpt>
      <trkpt lat="44.89411" lon="5.24278">
        <ele>1535.36</ele>
        <time>2022-10-18T09:55:56Z</time>
      </trkpt>
      <trkpt lat="44.89411" lon="5.24278">
        <ele>1535.36</ele>
        <time>2022-10-18T09:55:57Z</time>
      </trkpt>
      <trkpt lat="44.89409" lon="5.2428">
        <ele>1532.96</ele>
        <time>2022-10-18T09:56:01Z</time>
      </trkpt>
      <trkpt lat="44.89403" lon="5.24284">
        <ele>1529.11</ele>
        <time>2022-10-18T09:56:12Z</time>
      </trkpt>
      <trkpt lat="44.89402" lon="5.24287">
        <ele>1527.19</ele>
        <time>2022-10-18T09:56:16Z</time>
      </trkpt>
      <trkpt lat="44.89396" lon="5.24291">
        <ele>1524.79</ele>
        <time>2022-10-18T09:56:24Z</time>
      </trkpt>
      <trkpt lat="44.89388" lon="5.24299">
        <ele>1520.94</ele>
        <time>2022-10-18T09:56:40Z</time>
      </trkpt>
      <trkpt lat="44.89388" lon="5.243">
        <ele>1520.46</ele>
        <time>2022-10-18T09:56:48Z</time>
      </trkpt>
      <trkpt lat="44.89389" lon="5.24304">
        <ele>1519.5</ele>
        <time>2022-10-18T09:56:55Z</time>
      </trkpt>
      <trkpt lat="44.89392" lon="5.24319">
        <ele>1516.14</ele>
        <time>2022-10-18T09:57:09Z</time>
      </trkpt>
      <trkpt lat="44.89396" lon="5.24332">
        <ele>1513.73</ele>
        <time>2022-10-18T09:57:24Z</time>
      </trkpt>
      <trkpt lat="44.89397" lon="5.24341">
        <ele>1510.37</ele>
        <time>2022-10-18T09:57:33Z</time>
      </trkpt>
      <trkpt lat="44.89398" lon="5.24351">
        <ele>1507.48</ele>
        <time>2022-10-18T09:57:44Z</time>
      </trkpt>
      <trkpt lat="44.89401" lon="5.24359">
        <ele>1504.6</ele>
        <time>2022-10-18T09:57:58Z</time>
      </trkpt>
      <trkpt lat="44.89405" lon="5.24369">
        <ele>1501.72</ele>
        <time>2022-10-18T09:58:14Z</time>
      </trkpt>
      <trkpt lat="44.89405" lon="5.24375">
        <ele>1498.35</ele>
        <time>2022-10-18T09:58:26Z</time>
      </trkpt>
      <trkpt lat="44.89405" lon="5.24376">
        <ele>1498.83</ele>
        <time>2022-10-18T09:58:27Z</time>
      </trkpt>
      <trkpt lat="44.89407" lon="5.24381">
        <ele>1496.43</ele>
        <time>2022-10-18T09:58:43Z</time>
      </trkpt>
      <trkpt lat="44.89409" lon="5.24387">
        <ele>1493.55</ele>
        <time>2022-10-18T09:58:59Z</time>
      </trkpt>
      <trkpt lat="44.89411" lon="5.2439">
        <ele>1492.58</ele>
        <time>2022-10-18T10:00:13Z</time>
      </trkpt>
      <trkpt lat="44.89413" lon="5.24391">
        <ele>1492.58</ele>
        <time>2022-10-18T10:00:32Z</time>
      </trkpt>
      <trkpt lat="44.89412" lon="5.2439">
        <ele>1494.03</ele>
        <time>2022-10-18T10:00:58Z</time>
      </trkpt>
      <trkpt lat="44.89411" lon="5.24386">
        <ele>1494.99</ele>
        <time>2022-10-18T10:01:16Z</time>
      </trkpt>
      <trkpt lat="44.8941" lon="5.24382">
        <ele>1496.43</ele>
        <time>2022-10-18T10:01:31Z</time>
      </trkpt>
      <trkpt lat="44.89409" lon="5.24381">
        <ele>1497.87</ele>
        <time>2022-10-18T10:01:50Z</time>
      </trkpt>
      <trkpt lat="44.89407" lon="5.24375">
        <ele>1499.31</ele>
        <time>2022-10-18T10:02:06Z</time>
      </trkpt>
      <trkpt lat="44.89407" lon="5.24376">
        <ele>1500.27</ele>
        <time>2022-10-18T10:02:26Z</time>
      </trkpt>
      <trkpt lat="44.89406" lon="5.2437">
        <ele>1501.24</ele>
        <time>2022-10-18T10:02:57Z</time>
      </trkpt>
      <trkpt lat="44.89405" lon="5.24364">
        <ele>1503.16</ele>
        <time>2022-10-18T10:03:12Z</time>
      </trkpt>
      <trkpt lat="44.89401" lon="5.24352">
        <ele>1506.52</ele>
        <time>2022-10-18T10:03:29Z</time>
      </trkpt>
      <trkpt lat="44.89399" lon="5.24342">
        <ele>1508.93</ele>
        <time>2022-10-18T10:03:46Z</time>
      </trkpt>
      <trkpt lat="44.89398" lon="5.24334">
        <ele>1511.81</ele>
        <time>2022-10-18T10:04:02Z</time>
      </trkpt>
      <trkpt lat="44.89395" lon="5.24324">
        <ele>1515.18</ele>
        <time>2022-10-18T10:04:17Z</time>
      </trkpt>
      <trkpt lat="44.89392" lon="5.24316">
        <ele>1516.62</ele>
        <time>2022-10-18T10:04:32Z</time>
      </trkpt>
      <trkpt lat="44.89391" lon="5.24305">
        <ele>1519.98</ele>
        <time>2022-10-18T10:04:47Z</time>
      </trkpt>
      <trkpt lat="44.89388" lon="5.24294">
        <ele>1521.9</ele>
        <time>2022-10-18T10:05:04Z</time>
      </trkpt>
      <trkpt lat="44.89384" lon="5.24283">
        <ele>1524.79</ele>
        <time>2022-10-18T10:05:20Z</time>
      </trkpt>
      <trkpt lat="44.89382" lon="5.24278">
        <ele>1525.75</ele>
        <time>2022-10-18T10:05:26Z</time>
      </trkpt>
      <trkpt lat="44.89377" lon="5.24265">
        <ele>1528.63</ele>
        <time>2022-10-18T10:05:40Z</time>
      </trkpt>
      <trkpt lat="44.89371" lon="5.24255">
        <ele>1531.04</ele>
        <time>2022-10-18T10:05:57Z</time>
      </trkpt>
      <trkpt lat="44.89368" lon="5.24251">
        <ele>1530.08</ele>
        <time>2022-10-18T10:06:06Z</time>
      </trkpt>
      <trkpt lat="44.89364" lon="5.24247">
        <ele>1528.15</ele>
        <time>2022-10-18T10:06:22Z</time>
      </trkpt>
      <trkpt lat="44.89357" lon="5.24239">
        <ele>1526.71</ele>
        <time>2022-10-18T10:06:37Z</time>
      </trkpt>
      <trkpt lat="44.89348" lon="5.24229">
        <ele>1526.23</ele>
        <time>2022-10-18T10:06:53Z</time>
      </trkpt>
      <trkpt lat="44.89338" lon="5.24221">
        <ele>1525.75</ele>
        <time>2022-10-18T10:07:08Z</time>
      </trkpt>
      <trkpt lat="44.89329" lon="5.24216">
        <ele>1524.79</ele>
        <time>2022-10-18T10:07:19Z</time>
      </trkpt>
      <trkpt lat="44.89312" lon="5.24212">
        <ele>1524.79</ele>
        <time>2022-10-18T10:07:37Z</time>
      </trkpt>
      <trkpt lat="44.89303" lon="5.24206">
        <ele>1524.79</ele>
        <time>2022-10-18T10:07:48Z</time>
      </trkpt>
      <trkpt lat="44.89301" lon="5.24204">
        <ele>1525.75</ele>
        <time>2022-10-18T10:07:50Z</time>
      </trkpt>
      <trkpt lat="44.89289" lon="5.2419">
        <ele>1525.75</ele>
        <time>2022-10-18T10:08:06Z</time>
      </trkpt>
      <trkpt lat="44.89287" lon="5.24189">
        <ele>1525.75</ele>
        <time>2022-10-18T10:08:08Z</time>
      </trkpt>
      <trkpt lat="44.89272" lon="5.24181">
        <ele>1524.31</ele>
        <time>2022-10-18T10:08:25Z</time>
      </trkpt>
      <trkpt lat="44.89261" lon="5.24175">
        <ele>1524.31</ele>
        <time>2022-10-18T10:08:39Z</time>
      </trkpt>
      <trkpt lat="44.89259" lon="5.24175">
        <ele>1525.75</ele>
        <time>2022-10-18T10:08:42Z</time>
      </trkpt>
      <trkpt lat="44.89256" lon="5.24175">
        <ele>1525.75</ele>
        <time>2022-10-18T10:08:45Z</time>
      </trkpt>
      <trkpt lat="44.89253" lon="5.24174">
        <ele>1525.75</ele>
        <time>2022-10-18T10:08:49Z</time>
      </trkpt>
      <trkpt lat="44.89246" lon="5.24168">
        <ele>1525.75</ele>
        <time>2022-10-18T10:08:58Z</time>
      </trkpt>
      <trkpt lat="44.89236" lon="5.24168">
        <ele>1527.19</ele>
        <time>2022-10-18T10:09:10Z</time>
      </trkpt>
      <trkpt lat="44.89225" lon="5.24164">
        <ele>1528.63</ele>
        <time>2022-10-18T10:09:26Z</time>
      </trkpt>
      <trkpt lat="44.89218" lon="5.24158">
        <ele>1531.04</ele>
        <time>2022-10-18T10:09:41Z</time>
      </trkpt>
      <trkpt lat="44.8921" lon="5.2415">
        <ele>1533.44</ele>
        <time>2022-10-18T10:09:57Z</time>
      </trkpt>
      <trkpt lat="44.89198" lon="5.24142">
        <ele>1535.84</ele>
        <time>2022-10-18T10:10:14Z</time>
      </trkpt>
      <trkpt lat="44.89197" lon="5.24142">
        <ele>1535.84</ele>
        <time>2022-10-18T10:10:15Z</time>
      </trkpt>
      <trkpt lat="44.89186" lon="5.2413">
        <ele>1536.8</ele>
        <time>2022-10-18T10:10:33Z</time>
      </trkpt>
      <trkpt lat="44.89177" lon="5.24119">
        <ele>1538.25</ele>
        <time>2022-10-18T10:10:49Z</time>
      </trkpt>
      <trkpt lat="44.89167" lon="5.24109">
        <ele>1539.69</ele>
        <time>2022-10-18T10:11:04Z</time>
      </trkpt>
      <trkpt lat="44.89158" lon="5.24099">
        <ele>1543.53</ele>
        <time>2022-10-18T10:11:19Z</time>
      </trkpt>
      <trkpt lat="44.89151" lon="5.2409">
        <ele>1543.53</ele>
        <time>2022-10-18T10:11:30Z</time>
      </trkpt>
      <trkpt lat="44.89149" lon="5.24087">
        <ele>1542.57</ele>
        <time>2022-10-18T10:11:33Z</time>
      </trkpt>
      <trkpt lat="44.89147" lon="5.24084">
        <ele>1543.53</ele>
        <time>2022-10-18T10:11:37Z</time>
      </trkpt>
      <trkpt lat="44.89141" lon="5.2407">
        <ele>1544.01</ele>
        <time>2022-10-18T10:11:51Z</time>
      </trkpt>
      <trkpt lat="44.89135" lon="5.24058">
        <ele>1544.01</ele>
        <time>2022-10-18T10:12:06Z</time>
      </trkpt>
      <trkpt lat="44.89128" lon="5.24043">
        <ele>1545.46</ele>
        <time>2022-10-18T10:12:21Z</time>
      </trkpt>
      <trkpt lat="44.89124" lon="5.24028">
        <ele>1546.42</ele>
        <time>2022-10-18T10:12:36Z</time>
      </trkpt>
      <trkpt lat="44.89123" lon="5.24014">
        <ele>1546.9</ele>
        <time>2022-10-18T10:12:48Z</time>
      </trkpt>
      <trkpt lat="44.89118" lon="5.23994">
        <ele>1547.86</ele>
        <time>2022-10-18T10:13:05Z</time>
      </trkpt>
      <trkpt lat="44.89112" lon="5.23983">
        <ele>1549.3</ele>
        <time>2022-10-18T10:13:20Z</time>
      </trkpt>
      <trkpt lat="44.89106" lon="5.2397">
        <ele>1552.19</ele>
        <time>2022-10-18T10:13:36Z</time>
      </trkpt>
      <trkpt lat="44.891" lon="5.23965">
        <ele>1553.63</ele>
        <time>2022-10-18T10:13:49Z</time>
      </trkpt>
      <trkpt lat="44.89093" lon="5.23955">
        <ele>1556.03</ele>
        <time>2022-10-18T10:14:07Z</time>
      </trkpt>
      <trkpt lat="44.89085" lon="5.23947">
        <ele>1558.43</ele>
        <time>2022-10-18T10:14:24Z</time>
      </trkpt>
      <trkpt lat="44.89075" lon="5.23937">
        <ele>1559.4</ele>
        <time>2022-10-18T10:14:40Z</time>
      </trkpt>
      <trkpt lat="44.89068" lon="5.23929">
        <ele>1560.84</ele>
        <time>2022-10-18T10:14:55Z</time>
      </trkpt>
      <trkpt lat="44.8906" lon="5.23923">
        <ele>1564.2</ele>
        <time>2022-10-18T10:15:13Z</time>
      </trkpt>
      <trkpt lat="44.89053" lon="5.23913">
        <ele>1567.09</ele>
        <time>2022-10-18T10:15:32Z</time>
      </trkpt>
      <trkpt lat="44.89047" lon="5.23907">
        <ele>1569.49</ele>
        <time>2022-10-18T10:15:47Z</time>
      </trkpt>
      <trkpt lat="44.89041" lon="5.23908">
        <ele>1571.41</ele>
        <time>2022-10-18T10:16:03Z</time>
      </trkpt>
      <trkpt lat="44.89035" lon="5.23912">
        <ele>1574.3</ele>
        <time>2022-10-18T10:16:19Z</time>
      </trkpt>
      <trkpt lat="44.89028" lon="5.2391">
        <ele>1577.18</ele>
        <time>2022-10-18T10:16:35Z</time>
      </trkpt>
      <trkpt lat="44.89022" lon="5.23911">
        <ele>1577.66</ele>
        <time>2022-10-18T10:16:51Z</time>
      </trkpt>
      <trkpt lat="44.8902" lon="5.23912">
        <ele>1577.66</ele>
        <time>2022-10-18T10:17:13Z</time>
      </trkpt>
      <trkpt lat="44.89017" lon="5.23909">
        <ele>1577.66</ele>
        <time>2022-10-18T10:17:30Z</time>
      </trkpt>
      <trkpt lat="44.89016" lon="5.23908">
        <ele>1577.66</ele>
        <time>2022-10-18T10:17:32Z</time>
      </trkpt>
      <trkpt lat="44.89013" lon="5.23904">
        <ele>1577.66</ele>
        <time>2022-10-18T10:17:37Z</time>
      </trkpt>
      <trkpt lat="44.8901" lon="5.23894">
        <ele>1578.14</ele>
        <time>2022-10-18T10:17:53Z</time>
      </trkpt>
      <trkpt lat="44.8901" lon="5.23894">
        <ele>1577.18</ele>
        <time>2022-10-18T10:18:00Z</time>
      </trkpt>
      <trkpt lat="44.8901" lon="5.23893">
        <ele>1578.62</ele>
        <time>2022-10-18T10:18:13Z</time>
      </trkpt>
      <trkpt lat="44.8901" lon="5.23893">
        <ele>1578.62</ele>
        <time>2022-10-18T10:18:31Z</time>
      </trkpt>
      <trkpt lat="44.89011" lon="5.23892">
        <ele>1578.62</ele>
        <time>2022-10-18T10:18:52Z</time>
      </trkpt>
      <trkpt lat="44.89012" lon="5.23892">
        <ele>1579.58</ele>
        <time>2022-10-18T10:24:03Z</time>
      </trkpt>
      <trkpt lat="44.89012" lon="5.23894">
        <ele>1580.06</ele>
        <time>2022-10-18T10:24:27Z</time>
      </trkpt>
      <trkpt lat="44.89016" lon="5.23906">
        <ele>1578.62</ele>
        <time>2022-10-18T10:24:42Z</time>
      </trkpt>
      <trkpt lat="44.89022" lon="5.23915">
        <ele>1578.62</ele>
        <time>2022-10-18T10:24:53Z</time>
      </trkpt>
      <trkpt lat="44.89029" lon="5.23923">
        <ele>1578.14</ele>
        <time>2022-10-18T10:25:11Z</time>
      </trkpt>
      <trkpt lat="44.8903" lon="5.23919">
        <ele>1577.66</ele>
        <time>2022-10-18T10:25:18Z</time>
      </trkpt>
      <trkpt lat="44.89035" lon="5.23918">
        <ele>1574.78</ele>
        <time>2022-10-18T10:25:31Z</time>
      </trkpt>
      <trkpt lat="44.89039" lon="5.23923">
        <ele>1573.33</ele>
        <time>2022-10-18T10:25:45Z</time>
      </trkpt>
      <trkpt lat="44.8904" lon="5.23925">
        <ele>1573.33</ele>
        <time>2022-10-18T10:26:01Z</time>
      </trkpt>
      <trkpt lat="44.89041" lon="5.2393">
        <ele>1572.37</ele>
        <time>2022-10-18T10:26:09Z</time>
      </trkpt>
      <trkpt lat="44.89047" lon="5.23942">
        <ele>1570.93</ele>
        <time>2022-10-18T10:26:24Z</time>
      </trkpt>
      <trkpt lat="44.89045" lon="5.23942">
        <ele>1570.93</ele>
        <time>2022-10-18T10:26:40Z</time>
      </trkpt>
      <trkpt lat="44.89043" lon="5.2394">
        <ele>1570.93</ele>
        <time>2022-10-18T10:27:06Z</time>
      </trkpt>
      <trkpt lat="44.89043" lon="5.23943">
        <ele>1570.93</ele>
        <time>2022-10-18T10:27:17Z</time>
      </trkpt>
      <trkpt lat="44.89044" lon="5.23947">
        <ele>1570.93</ele>
        <time>2022-10-18T10:27:20Z</time>
      </trkpt>
      <trkpt lat="44.89047" lon="5.2396">
        <ele>1571.89</ele>
        <time>2022-10-18T10:27:33Z</time>
      </trkpt>
      <trkpt lat="44.89046" lon="5.23963">
        <ele>1572.37</ele>
        <time>2022-10-18T10:27:48Z</time>
      </trkpt>
      <trkpt lat="44.89048" lon="5.23967">
        <ele>1572.37</ele>
        <time>2022-10-18T10:28:05Z</time>
      </trkpt>
      <trkpt lat="44.89051" lon="5.23981">
        <ele>1569.97</ele>
        <time>2022-10-18T10:28:19Z</time>
      </trkpt>
      <trkpt lat="44.89046" lon="5.23974">
        <ele>1572.85</ele>
        <time>2022-10-18T11:16:07Z</time>
      </trkpt>
      <trkpt lat="44.89041" lon="5.23964">
        <ele>1574.78</ele>
        <time>2022-10-18T11:16:23Z</time>
      </trkpt>
      <trkpt lat="44.89034" lon="5.23949">
        <ele>1577.18</ele>
        <time>2022-10-18T11:16:41Z</time>
      </trkpt>
      <trkpt lat="44.89033" lon="5.23948">
        <ele>1578.62</ele>
        <time>2022-10-18T11:16:44Z</time>
      </trkpt>
      <trkpt lat="44.89029" lon="5.23941">
        <ele>1580.06</ele>
        <time>2022-10-18T11:16:58Z</time>
      </trkpt>
      <trkpt lat="44.89027" lon="5.23938">
        <ele>1578.62</ele>
        <time>2022-10-18T11:17:03Z</time>
      </trkpt>
      <trkpt lat="44.8902" lon="5.23929">
        <ele>1579.58</ele>
        <time>2022-10-18T11:17:20Z</time>
      </trkpt>
      <trkpt lat="44.89016" lon="5.23925">
        <ele>1577.66</ele>
        <time>2022-10-18T11:17:28Z</time>
      </trkpt>
      <trkpt lat="44.89012" lon="5.23921">
        <ele>1577.66</ele>
        <time>2022-10-18T11:17:34Z</time>
      </trkpt>
      <trkpt lat="44.89006" lon="5.23912">
        <ele>1577.18</ele>
        <time>2022-10-18T11:17:47Z</time>
      </trkpt>
      <trkpt lat="44.88999" lon="5.23908">
        <ele>1577.18</ele>
        <time>2022-10-18T11:17:59Z</time>
      </trkpt>
      <trkpt lat="44.88993" lon="5.23909">
        <ele>1577.18</ele>
        <time>2022-10-18T11:18:07Z</time>
      </trkpt>
      <trkpt lat="44.88984" lon="5.23909">
        <ele>1574.78</ele>
        <time>2022-10-18T11:18:18Z</time>
      </trkpt>
      <trkpt lat="44.88969" lon="5.23907">
        <ele>1571.89</ele>
        <time>2022-10-18T11:18:34Z</time>
      </trkpt>
      <trkpt lat="44.88953" lon="5.23907">
        <ele>1569.49</ele>
        <time>2022-10-18T11:18:52Z</time>
      </trkpt>
      <trkpt lat="44.88942" lon="5.23908">
        <ele>1568.53</ele>
        <time>2022-10-18T11:19:08Z</time>
      </trkpt>
      <trkpt lat="44.88931" lon="5.23905">
        <ele>1566.12</ele>
        <time>2022-10-18T11:19:22Z</time>
      </trkpt>
      <trkpt lat="44.88917" lon="5.23899">
        <ele>1563.72</ele>
        <time>2022-10-18T11:19:42Z</time>
      </trkpt>
      <trkpt lat="44.88908" lon="5.23901">
        <ele>1560.36</ele>
        <time>2022-10-18T11:19:58Z</time>
      </trkpt>
      <trkpt lat="44.88899" lon="5.23908">
        <ele>1557.47</ele>
        <time>2022-10-18T11:20:12Z</time>
      </trkpt>
      <trkpt lat="44.88888" lon="5.23915">
        <ele>1554.59</ele>
        <time>2022-10-18T11:20:27Z</time>
      </trkpt>
      <trkpt lat="44.88886" lon="5.23916">
        <ele>1553.15</ele>
        <time>2022-10-18T11:20:30Z</time>
      </trkpt>
      <trkpt lat="44.88879" lon="5.2392">
        <ele>1551.22</ele>
        <time>2022-10-18T11:20:38Z</time>
      </trkpt>
      <trkpt lat="44.88869" lon="5.23922">
        <ele>1547.86</ele>
        <time>2022-10-18T11:20:49Z</time>
      </trkpt>
      <trkpt lat="44.88865" lon="5.23922">
        <ele>1546.42</ele>
        <time>2022-10-18T11:21:02Z</time>
      </trkpt>
      <trkpt lat="44.88859" lon="5.2392">
        <ele>1544.98</ele>
        <time>2022-10-18T11:21:18Z</time>
      </trkpt>
      <trkpt lat="44.88856" lon="5.23918">
        <ele>1544.98</ele>
        <time>2022-10-18T11:21:36Z</time>
      </trkpt>
      <trkpt lat="44.88856" lon="5.2392">
        <ele>1544.98</ele>
        <time>2022-10-18T11:21:46Z</time>
      </trkpt>
      <trkpt lat="44.88849" lon="5.23929">
        <ele>1541.61</ele>
        <time>2022-10-18T11:22:03Z</time>
      </trkpt>
      <trkpt lat="44.88848" lon="5.23928">
        <ele>1541.61</ele>
        <time>2022-10-18T11:22:04Z</time>
      </trkpt>
      <trkpt lat="44.88837" lon="5.23916">
        <ele>1538.25</ele>
        <time>2022-10-18T11:22:22Z</time>
      </trkpt>
      <trkpt lat="44.88833" lon="5.23915">
        <ele>1537.29</ele>
        <time>2022-10-18T11:22:27Z</time>
      </trkpt>
      <trkpt lat="44.88823" lon="5.23922">
        <ele>1536.32</ele>
        <time>2022-10-18T11:22:37Z</time>
      </trkpt>
      <trkpt lat="44.88808" lon="5.23933">
        <ele>1535.84</ele>
        <time>2022-10-18T11:22:55Z</time>
      </trkpt>
      <trkpt lat="44.88806" lon="5.23934">
        <ele>1537.29</ele>
        <time>2022-10-18T11:22:57Z</time>
      </trkpt>
      <trkpt lat="44.88804" lon="5.23936">
        <ele>1537.29</ele>
        <time>2022-10-18T11:23:00Z</time>
      </trkpt>
      <trkpt lat="44.88801" lon="5.23936">
        <ele>1537.29</ele>
        <time>2022-10-18T11:23:02Z</time>
      </trkpt>
      <trkpt lat="44.88796" lon="5.2394">
        <ele>1535.84</ele>
        <time>2022-10-18T11:23:07Z</time>
      </trkpt>
      <trkpt lat="44.8879" lon="5.23947">
        <ele>1534.4</ele>
        <time>2022-10-18T11:23:15Z</time>
      </trkpt>
      <trkpt lat="44.8878" lon="5.23952">
        <ele>1532.96</ele>
        <time>2022-10-18T11:23:30Z</time>
      </trkpt>
      <trkpt lat="44.88782" lon="5.23953">
        <ele>1532.48</ele>
        <time>2022-10-18T11:23:44Z</time>
      </trkpt>
      <trkpt lat="44.88785" lon="5.23958">
        <ele>1532</ele>
        <time>2022-10-18T11:23:57Z</time>
      </trkpt>
      <trkpt lat="44.88792" lon="5.23967">
        <ele>1530.08</ele>
        <time>2022-10-18T11:24:10Z</time>
      </trkpt>
      <trkpt lat="44.88793" lon="5.23975">
        <ele>1527.67</ele>
        <time>2022-10-18T11:24:20Z</time>
      </trkpt>
      <trkpt lat="44.88793" lon="5.23984">
        <ele>1525.27</ele>
        <time>2022-10-18T11:24:35Z</time>
      </trkpt>
      <trkpt lat="44.88801" lon="5.23992">
        <ele>1523.83</ele>
        <time>2022-10-18T11:24:50Z</time>
      </trkpt>
      <trkpt lat="44.88806" lon="5.24002">
        <ele>1520.94</ele>
        <time>2022-10-18T11:25:03Z</time>
      </trkpt>
      <trkpt lat="44.88802" lon="5.24009">
        <ele>1519.02</ele>
        <time>2022-10-18T11:25:16Z</time>
      </trkpt>
      <trkpt lat="44.88791" lon="5.2401">
        <ele>1515.66</ele>
        <time>2022-10-18T11:25:27Z</time>
      </trkpt>
      <trkpt lat="44.88786" lon="5.24012">
        <ele>1512.77</ele>
        <time>2022-10-18T11:25:41Z</time>
      </trkpt>
      <trkpt lat="44.88792" lon="5.24019">
        <ele>1510.37</ele>
        <time>2022-10-18T11:25:54Z</time>
      </trkpt>
      <trkpt lat="44.88789" lon="5.24025">
        <ele>1507.48</ele>
        <time>2022-10-18T11:26:08Z</time>
      </trkpt>
      <trkpt lat="44.8878" lon="5.24026">
        <ele>1505.08</ele>
        <time>2022-10-18T11:26:21Z</time>
      </trkpt>
      <trkpt lat="44.8877" lon="5.24028">
        <ele>1501.72</ele>
        <time>2022-10-18T11:26:32Z</time>
      </trkpt>
      <trkpt lat="44.88755" lon="5.24029">
        <ele>1499.79</ele>
        <time>2022-10-18T11:26:49Z</time>
      </trkpt>
      <trkpt lat="44.88738" lon="5.24023">
        <ele>1496.43</ele>
        <time>2022-10-18T11:27:08Z</time>
      </trkpt>
      <trkpt lat="44.88728" lon="5.24023">
        <ele>1493.06</ele>
        <time>2022-10-18T11:27:24Z</time>
      </trkpt>
      <trkpt lat="44.88727" lon="5.24026">
        <ele>1492.58</ele>
        <time>2022-10-18T11:27:27Z</time>
      </trkpt>
      <trkpt lat="44.88724" lon="5.2403">
        <ele>1491.14</ele>
        <time>2022-10-18T11:27:33Z</time>
      </trkpt>
      <trkpt lat="44.88718" lon="5.24012">
        <ele>1488.74</ele>
        <time>2022-10-18T11:27:48Z</time>
      </trkpt>
      <trkpt lat="44.88709" lon="5.24004">
        <ele>1486.34</ele>
        <time>2022-10-18T11:28:03Z</time>
      </trkpt>
      <trkpt lat="44.88707" lon="5.2401">
        <ele>1483.45</ele>
        <time>2022-10-18T11:28:15Z</time>
      </trkpt>
      <trkpt lat="44.88698" lon="5.24007">
        <ele>1481.05</ele>
        <time>2022-10-18T11:28:29Z</time>
      </trkpt>
      <trkpt lat="44.88692" lon="5.24006">
        <ele>1478.65</ele>
        <time>2022-10-18T11:28:40Z</time>
      </trkpt>
      <trkpt lat="44.88685" lon="5.24005">
        <ele>1474.8</ele>
        <time>2022-10-18T11:28:54Z</time>
      </trkpt>
      <trkpt lat="44.88678" lon="5.24003">
        <ele>1471.92</ele>
        <time>2022-10-18T11:29:05Z</time>
      </trkpt>
      <trkpt lat="44.88669" lon="5.24001">
        <ele>1469.03</ele>
        <time>2022-10-18T11:29:20Z</time>
      </trkpt>
      <trkpt lat="44.88669" lon="5.24006">
        <ele>1467.59</ele>
        <time>2022-10-18T11:29:29Z</time>
      </trkpt>
      <trkpt lat="44.88674" lon="5.2402">
        <ele>1463.74</ele>
        <time>2022-10-18T11:29:44Z</time>
      </trkpt>
      <trkpt lat="44.8867" lon="5.2402">
        <ele>1462.78</ele>
        <time>2022-10-18T11:29:49Z</time>
      </trkpt>
      <trkpt lat="44.88656" lon="5.24016">
        <ele>1459.42</ele>
        <time>2022-10-18T11:30:06Z</time>
      </trkpt>
      <trkpt lat="44.88643" lon="5.24012">
        <ele>1456.05</ele>
        <time>2022-10-18T11:30:21Z</time>
      </trkpt>
      <trkpt lat="44.88634" lon="5.2401">
        <ele>1452.69</ele>
        <time>2022-10-18T11:30:33Z</time>
      </trkpt>
      <trkpt lat="44.88622" lon="5.24007">
        <ele>1449.32</ele>
        <time>2022-10-18T11:30:46Z</time>
      </trkpt>
      <trkpt lat="44.88612" lon="5.24005">
        <ele>1446.44</ele>
        <time>2022-10-18T11:31:02Z</time>
      </trkpt>
      <trkpt lat="44.88604" lon="5.24005">
        <ele>1443.08</ele>
        <time>2022-10-18T11:31:15Z</time>
      </trkpt>
      <trkpt lat="44.88596" lon="5.24005">
        <ele>1440.67</ele>
        <time>2022-10-18T11:31:29Z</time>
      </trkpt>
      <trkpt lat="44.88588" lon="5.24002">
        <ele>1437.31</ele>
        <time>2022-10-18T11:31:41Z</time>
      </trkpt>
      <trkpt lat="44.8858" lon="5.23999">
        <ele>1435.39</ele>
        <time>2022-10-18T11:31:54Z</time>
      </trkpt>
      <trkpt lat="44.8857" lon="5.23997">
        <ele>1432.98</ele>
        <time>2022-10-18T11:32:10Z</time>
      </trkpt>
      <trkpt lat="44.88563" lon="5.23998">
        <ele>1429.62</ele>
        <time>2022-10-18T11:32:19Z</time>
      </trkpt>
      <trkpt lat="44.88555" lon="5.23998">
        <ele>1426.73</ele>
        <time>2022-10-18T11:32:31Z</time>
      </trkpt>
      <trkpt lat="44.88546" lon="5.23999">
        <ele>1423.37</ele>
        <time>2022-10-18T11:32:44Z</time>
      </trkpt>
      <trkpt lat="44.88537" lon="5.23999">
        <ele>1420</ele>
        <time>2022-10-18T11:32:58Z</time>
      </trkpt>
      <trkpt lat="44.88531" lon="5.24">
        <ele>1417.12</ele>
        <time>2022-10-18T11:33:06Z</time>
      </trkpt>
      <trkpt lat="44.88524" lon="5.24001">
        <ele>1414.24</ele>
        <time>2022-10-18T11:33:20Z</time>
      </trkpt>
      <trkpt lat="44.88517" lon="5.24002">
        <ele>1410.87</ele>
        <time>2022-10-18T11:33:31Z</time>
      </trkpt>
      <trkpt lat="44.88509" lon="5.24004">
        <ele>1407.51</ele>
        <time>2022-10-18T11:33:45Z</time>
      </trkpt>
      <trkpt lat="44.88503" lon="5.24007">
        <ele>1404.62</ele>
        <time>2022-10-18T11:33:58Z</time>
      </trkpt>
      <trkpt lat="44.88499" lon="5.24009">
        <ele>1401.74</ele>
        <time>2022-10-18T11:34:11Z</time>
      </trkpt>
      <trkpt lat="44.88496" lon="5.24013">
        <ele>1399.34</ele>
        <time>2022-10-18T11:34:23Z</time>
      </trkpt>
      <trkpt lat="44.88493" lon="5.24019">
        <ele>1396.45</ele>
        <time>2022-10-18T11:34:36Z</time>
      </trkpt>
      <trkpt lat="44.88491" lon="5.24022">
        <ele>1394.05</ele>
        <time>2022-10-18T11:34:49Z</time>
      </trkpt>
      <trkpt lat="44.88484" lon="5.24027">
        <ele>1390.2</ele>
        <time>2022-10-18T11:35:02Z</time>
      </trkpt>
      <trkpt lat="44.88477" lon="5.24029">
        <ele>1387.32</ele>
        <time>2022-10-18T11:35:12Z</time>
      </trkpt>
      <trkpt lat="44.88469" lon="5.24029">
        <ele>1383.96</ele>
        <time>2022-10-18T11:35:23Z</time>
      </trkpt>
      <trkpt lat="44.88467" lon="5.24038">
        <ele>1380.59</ele>
        <time>2022-10-18T11:35:36Z</time>
      </trkpt>
      <trkpt lat="44.88461" lon="5.24043">
        <ele>1377.71</ele>
        <time>2022-10-18T11:35:50Z</time>
      </trkpt>
      <trkpt lat="44.88454" lon="5.24044">
        <ele>1374.82</ele>
        <time>2022-10-18T11:35:59Z</time>
      </trkpt>
      <trkpt lat="44.88447" lon="5.24052">
        <ele>1371.46</ele>
        <time>2022-10-18T11:36:10Z</time>
      </trkpt>
      <trkpt lat="44.88446" lon="5.24052">
        <ele>1371.46</ele>
        <time>2022-10-18T11:36:11Z</time>
      </trkpt>
      <trkpt lat="44.88442" lon="5.24051">
        <ele>1370.02</ele>
        <time>2022-10-18T11:36:15Z</time>
      </trkpt>
      <trkpt lat="44.88434" lon="5.24052">
        <ele>1367.13</ele>
        <time>2022-10-18T11:36:31Z</time>
      </trkpt>
      <trkpt lat="44.88429" lon="5.24054">
        <ele>1367.13</ele>
        <time>2022-10-18T11:38:17Z</time>
      </trkpt>
      <trkpt lat="44.88425" lon="5.24057">
        <ele>1365.69</ele>
        <time>2022-10-18T11:38:24Z</time>
      </trkpt>
      <trkpt lat="44.88423" lon="5.24057">
        <ele>1365.21</ele>
        <time>2022-10-18T11:38:43Z</time>
      </trkpt>
      <trkpt lat="44.88422" lon="5.24055">
        <ele>1364.73</ele>
        <time>2022-10-18T11:40:13Z</time>
      </trkpt>
      <trkpt lat="44.88417" lon="5.24057">
        <ele>1364.73</ele>
        <time>2022-10-18T11:40:52Z</time>
      </trkpt>
      <trkpt lat="44.88401" lon="5.24059">
        <ele>1364.25</ele>
        <time>2022-10-18T11:41:07Z</time>
      </trkpt>
      <trkpt lat="44.88387" lon="5.24061">
        <ele>1363.77</ele>
        <time>2022-10-18T11:41:24Z</time>
      </trkpt>
      <trkpt lat="44.88388" lon="5.24067">
        <ele>1362.81</ele>
        <time>2022-10-18T11:41:58Z</time>
      </trkpt>
      <trkpt lat="44.88396" lon="5.24072">
        <ele>1360.88</ele>
        <time>2022-10-18T11:42:09Z</time>
      </trkpt>
      <trkpt lat="44.88399" lon="5.24075">
        <ele>1359.92</ele>
        <time>2022-10-18T11:42:13Z</time>
      </trkpt>
      <trkpt lat="44.88416" lon="5.24084">
        <ele>1356.56</ele>
        <time>2022-10-18T11:42:28Z</time>
      </trkpt>
      <trkpt lat="44.88429" lon="5.2409">
        <ele>1355.12</ele>
        <time>2022-10-18T11:42:41Z</time>
      </trkpt>
      <trkpt lat="44.88435" lon="5.2409">
        <ele>1354.15</ele>
        <time>2022-10-18T11:42:55Z</time>
      </trkpt>
      <trkpt lat="44.8844" lon="5.24092">
        <ele>1354.15</ele>
        <time>2022-10-18T11:43:23Z</time>
      </trkpt>
      <trkpt lat="44.88446" lon="5.24096">
        <ele>1352.71</ele>
        <time>2022-10-18T11:43:45Z</time>
      </trkpt>
      <trkpt lat="44.88449" lon="5.24103">
        <ele>1350.79</ele>
        <time>2022-10-18T11:43:58Z</time>
      </trkpt>
      <trkpt lat="44.8844" lon="5.24106">
        <ele>1347.43</ele>
        <time>2022-10-18T11:44:09Z</time>
      </trkpt>
      <trkpt lat="44.88431" lon="5.24111">
        <ele>1346.46</ele>
        <time>2022-10-18T11:44:19Z</time>
      </trkpt>
      <trkpt lat="44.88412" lon="5.24124">
        <ele>1342.62</ele>
        <time>2022-10-18T11:44:36Z</time>
      </trkpt>
      <trkpt lat="44.88398" lon="5.24129">
        <ele>1339.25</ele>
        <time>2022-10-18T11:44:52Z</time>
      </trkpt>
      <trkpt lat="44.88398" lon="5.24137">
        <ele>1336.85</ele>
        <time>2022-10-18T11:45:06Z</time>
      </trkpt>
      <trkpt lat="44.88409" lon="5.24147">
        <ele>1333.49</ele>
        <time>2022-10-18T11:45:23Z</time>
      </trkpt>
      <trkpt lat="44.88411" lon="5.24148">
        <ele>1333.49</ele>
        <time>2022-10-18T11:45:25Z</time>
      </trkpt>
      <trkpt lat="44.88426" lon="5.24153">
        <ele>1329.64</ele>
        <time>2022-10-18T11:45:41Z</time>
      </trkpt>
      <trkpt lat="44.88423" lon="5.24158">
        <ele>1329.16</ele>
        <time>2022-10-18T11:45:52Z</time>
      </trkpt>
      <trkpt lat="44.88414" lon="5.24161">
        <ele>1328.68</ele>
        <time>2022-10-18T11:46:06Z</time>
      </trkpt>
      <trkpt lat="44.88398" lon="5.24166">
        <ele>1325.8</ele>
        <time>2022-10-18T11:46:23Z</time>
      </trkpt>
      <trkpt lat="44.884" lon="5.24172">
        <ele>1323.87</ele>
        <time>2022-10-18T11:46:38Z</time>
      </trkpt>
      <trkpt lat="44.88407" lon="5.24178">
        <ele>1320.99</ele>
        <time>2022-10-18T11:46:52Z</time>
      </trkpt>
      <trkpt lat="44.88414" lon="5.24185">
        <ele>1318.1</ele>
        <time>2022-10-18T11:47:07Z</time>
      </trkpt>
      <trkpt lat="44.88425" lon="5.24194">
        <ele>1315.22</ele>
        <time>2022-10-18T11:47:21Z</time>
      </trkpt>
      <trkpt lat="44.88437" lon="5.24207">
        <ele>1312.34</ele>
        <time>2022-10-18T11:47:37Z</time>
      </trkpt>
      <trkpt lat="44.88443" lon="5.24218">
        <ele>1308.97</ele>
        <time>2022-10-18T11:47:49Z</time>
      </trkpt>
      <trkpt lat="44.88437" lon="5.2422">
        <ele>1306.57</ele>
        <time>2022-10-18T11:48:03Z</time>
      </trkpt>
      <trkpt lat="44.88425" lon="5.24225">
        <ele>1304.17</ele>
        <time>2022-10-18T11:48:17Z</time>
      </trkpt>
      <trkpt lat="44.88414" lon="5.24233">
        <ele>1301.28</ele>
        <time>2022-10-18T11:48:31Z</time>
      </trkpt>
      <trkpt lat="44.88405" lon="5.24239">
        <ele>1297.92</ele>
        <time>2022-10-18T11:48:43Z</time>
      </trkpt>
      <trkpt lat="44.88405" lon="5.24247">
        <ele>1295.99</ele>
        <time>2022-10-18T11:48:55Z</time>
      </trkpt>
      <trkpt lat="44.88399" lon="5.24255">
        <ele>1293.11</ele>
        <time>2022-10-18T11:49:08Z</time>
      </trkpt>
      <trkpt lat="44.8839" lon="5.24264">
        <ele>1289.75</ele>
        <time>2022-10-18T11:49:21Z</time>
      </trkpt>
      <trkpt lat="44.88387" lon="5.24267">
        <ele>1288.78</ele>
        <time>2022-10-18T11:49:25Z</time>
      </trkpt>
      <trkpt lat="44.88375" lon="5.24278">
        <ele>1284.94</ele>
        <time>2022-10-18T11:49:40Z</time>
      </trkpt>
      <trkpt lat="44.88367" lon="5.2429">
        <ele>1282.06</ele>
        <time>2022-10-18T11:49:55Z</time>
      </trkpt>
      <trkpt lat="44.88365" lon="5.24298">
        <ele>1279.17</ele>
        <time>2022-10-18T11:50:08Z</time>
      </trkpt>
      <trkpt lat="44.88359" lon="5.24306">
        <ele>1276.77</ele>
        <time>2022-10-18T11:50:22Z</time>
      </trkpt>
      <trkpt lat="44.88357" lon="5.24312">
        <ele>1275.81</ele>
        <time>2022-10-18T11:50:42Z</time>
      </trkpt>
      <trkpt lat="44.88355" lon="5.2432">
        <ele>1274.85</ele>
        <time>2022-10-18T11:50:59Z</time>
      </trkpt>
      <trkpt lat="44.88358" lon="5.24325">
        <ele>1273.88</ele>
        <time>2022-10-18T11:51:18Z</time>
      </trkpt>
      <trkpt lat="44.88369" lon="5.24333">
        <ele>1271.48</ele>
        <time>2022-10-18T11:51:34Z</time>
      </trkpt>
      <trkpt lat="44.88372" lon="5.24336">
        <ele>1271.48</ele>
        <time>2022-10-18T11:51:38Z</time>
      </trkpt>
      <trkpt lat="44.88379" lon="5.24348">
        <ele>1269.08</ele>
        <time>2022-10-18T11:51:51Z</time>
      </trkpt>
      <trkpt lat="44.88383" lon="5.24366">
        <ele>1265.71</ele>
        <time>2022-10-18T11:52:06Z</time>
      </trkpt>
      <trkpt lat="44.88383" lon="5.24384">
        <ele>1262.35</ele>
        <time>2022-10-18T11:52:22Z</time>
      </trkpt>
      <trkpt lat="44.88381" lon="5.24401">
        <ele>1259.94</ele>
        <time>2022-10-18T11:52:37Z</time>
      </trkpt>
      <trkpt lat="44.8838" lon="5.24414">
        <ele>1257.54</ele>
        <time>2022-10-18T11:52:50Z</time>
      </trkpt>
      <trkpt lat="44.88379" lon="5.24423">
        <ele>1256.1</ele>
        <time>2022-10-18T11:52:58Z</time>
      </trkpt>
      <trkpt lat="44.88376" lon="5.24444">
        <ele>1253.22</ele>
        <time>2022-10-18T11:53:15Z</time>
      </trkpt>
      <trkpt lat="44.88375" lon="5.2445">
        <ele>1252.25</ele>
        <time>2022-10-18T11:53:20Z</time>
      </trkpt>
      <trkpt lat="44.88376" lon="5.24461">
        <ele>1251.29</ele>
        <time>2022-10-18T11:53:32Z</time>
      </trkpt>
      <trkpt lat="44.88379" lon="5.24483">
        <ele>1248.41</ele>
        <time>2022-10-18T11:53:49Z</time>
      </trkpt>
      <trkpt lat="44.8838" lon="5.24484">
        <ele>1248.41</ele>
        <time>2022-10-18T11:53:50Z</time>
      </trkpt>
      <trkpt lat="44.88382" lon="5.24494">
        <ele>1246.97</ele>
        <time>2022-10-18T11:53:58Z</time>
      </trkpt>
      <trkpt lat="44.88383" lon="5.245">
        <ele>1246.49</ele>
        <time>2022-10-18T11:54:02Z</time>
      </trkpt>
      <trkpt lat="44.88388" lon="5.24517">
        <ele>1245.53</ele>
        <time>2022-10-18T11:54:17Z</time>
      </trkpt>
      <trkpt lat="44.88392" lon="5.24536">
        <ele>1245.04</ele>
        <time>2022-10-18T11:54:33Z</time>
      </trkpt>
      <trkpt lat="44.88397" lon="5.24554">
        <ele>1244.08</ele>
        <time>2022-10-18T11:54:48Z</time>
      </trkpt>
      <trkpt lat="44.88399" lon="5.24562">
        <ele>1243.12</ele>
        <time>2022-10-18T11:54:55Z</time>
      </trkpt>
      <trkpt lat="44.88399" lon="5.24573">
        <ele>1241.2</ele>
        <time>2022-10-18T11:55:09Z</time>
      </trkpt>
      <trkpt lat="44.88397" lon="5.24583">
        <ele>1239.28</ele>
        <time>2022-10-18T11:55:21Z</time>
      </trkpt>
      <trkpt lat="44.88397" lon="5.24593">
        <ele>1237.35</ele>
        <time>2022-10-18T11:55:30Z</time>
      </trkpt>
      <trkpt lat="44.88397" lon="5.24598">
        <ele>1236.39</ele>
        <time>2022-10-18T11:55:34Z</time>
      </trkpt>
      <trkpt lat="44.88394" lon="5.24607">
        <ele>1234.47</ele>
        <time>2022-10-18T11:55:47Z</time>
      </trkpt>
      <trkpt lat="44.88394" lon="5.24608">
        <ele>1233.99</ele>
        <time>2022-10-18T11:55:48Z</time>
      </trkpt>
      <trkpt lat="44.88388" lon="5.24625">
        <ele>1231.59</ele>
        <time>2022-10-18T11:56:02Z</time>
      </trkpt>
      <trkpt lat="44.88388" lon="5.24628">
        <ele>1231.59</ele>
        <time>2022-10-18T11:56:04Z</time>
      </trkpt>
      <trkpt lat="44.88391" lon="5.24627">
        <ele>1230.62</ele>
        <time>2022-10-18T11:56:19Z</time>
      </trkpt>
      <trkpt lat="44.88395" lon="5.24623">
        <ele>1231.59</ele>
        <time>2022-10-18T11:56:25Z</time>
      </trkpt>
      <trkpt lat="44.88408" lon="5.24615">
        <ele>1233.51</ele>
        <time>2022-10-18T11:56:40Z</time>
      </trkpt>
      <trkpt lat="44.88419" lon="5.24617">
        <ele>1234.47</ele>
        <time>2022-10-18T11:56:54Z</time>
      </trkpt>
      <trkpt lat="44.88424" lon="5.24616">
        <ele>1234.47</ele>
        <time>2022-10-18T11:57:11Z</time>
      </trkpt>
      <trkpt lat="44.88427" lon="5.2462">
        <ele>1233.99</ele>
        <time>2022-10-18T11:58:28Z</time>
      </trkpt>
      <trkpt lat="44.88429" lon="5.24619">
        <ele>1233.99</ele>
        <time>2022-10-18T11:58:45Z</time>
      </trkpt>
      <trkpt lat="44.88429" lon="5.24611">
        <ele>1234.47</ele>
        <time>2022-10-18T11:59:00Z</time>
      </trkpt>
      <trkpt lat="44.88427" lon="5.24606">
        <ele>1235.91</ele>
        <time>2022-10-18T11:59:14Z</time>
      </trkpt>
      <trkpt lat="44.88425" lon="5.24604">
        <ele>1235.91</ele>
        <time>2022-10-18T11:59:31Z</time>
      </trkpt>
      <trkpt lat="44.88421" lon="5.24604">
        <ele>1235.43</ele>
        <time>2022-10-18T12:00:00Z</time>
      </trkpt>
      <trkpt lat="44.88421" lon="5.24602">
        <ele>1233.51</ele>
        <time>2022-10-18T12:03:45Z</time>
      </trkpt>
      <trkpt lat="44.88427" lon="5.24601">
        <ele>1233.03</ele>
        <time>2022-10-18T12:04:26Z</time>
      </trkpt>
      <trkpt lat="44.8843" lon="5.24603">
        <ele>1233.51</ele>
        <time>2022-10-18T12:05:12Z</time>
      </trkpt>
      <trkpt lat="44.88435" lon="5.24607">
        <ele>1233.51</ele>
        <time>2022-10-18T12:05:25Z</time>
      </trkpt>
      <trkpt lat="44.88432" lon="5.24613">
        <ele>1232.07</ele>
        <time>2022-10-18T12:05:42Z</time>
      </trkpt>
      <trkpt lat="44.88429" lon="5.24621">
        <ele>1231.11</ele>
        <time>2022-10-18T12:05:52Z</time>
      </trkpt>
      <trkpt lat="44.88411" lon="5.24618">
        <ele>1230.14</ele>
        <time>2022-10-18T12:06:11Z</time>
      </trkpt>
      <trkpt lat="44.88408" lon="5.24618">
        <ele>1230.14</ele>
        <time>2022-10-18T12:06:14Z</time>
      </trkpt>
      <trkpt lat="44.88395" lon="5.24626">
        <ele>1228.7</ele>
        <time>2022-10-18T12:06:28Z</time>
      </trkpt>
      <trkpt lat="44.88389" lon="5.24637">
        <ele>1227.26</ele>
        <time>2022-10-18T12:06:41Z</time>
      </trkpt>
      <trkpt lat="44.88395" lon="5.24651">
        <ele>1225.34</ele>
        <time>2022-10-18T12:06:58Z</time>
      </trkpt>
      <trkpt lat="44.884" lon="5.24661">
        <ele>1223.9</ele>
        <time>2022-10-18T12:07:08Z</time>
      </trkpt>
      <trkpt lat="44.8841" lon="5.24674">
        <ele>1222.45</ele>
        <time>2022-10-18T12:07:22Z</time>
      </trkpt>
      <trkpt lat="44.88411" lon="5.24679">
        <ele>1221.97</ele>
        <time>2022-10-18T12:07:25Z</time>
      </trkpt>
      <trkpt lat="44.88422" lon="5.24697">
        <ele>1219.57</ele>
        <time>2022-10-18T12:07:42Z</time>
      </trkpt>
      <trkpt lat="44.88422" lon="5.24705">
        <ele>1218.61</ele>
        <time>2022-10-18T12:07:55Z</time>
      </trkpt>
      <trkpt lat="44.88428" lon="5.2472">
        <ele>1216.21</ele>
        <time>2022-10-18T12:08:11Z</time>
      </trkpt>
      <trkpt lat="44.88429" lon="5.24722">
        <ele>1216.21</ele>
        <time>2022-10-18T12:08:13Z</time>
      </trkpt>
      <trkpt lat="44.88434" lon="5.2473">
        <ele>1214.76</ele>
        <time>2022-10-18T12:08:21Z</time>
      </trkpt>
      <trkpt lat="44.88444" lon="5.24755">
        <ele>1213.32</ele>
        <time>2022-10-18T12:08:39Z</time>
      </trkpt>
      <trkpt lat="44.88445" lon="5.24764">
        <ele>1212.36</ele>
        <time>2022-10-18T12:08:45Z</time>
      </trkpt>
      <trkpt lat="44.88446" lon="5.24772">
        <ele>1210.92</ele>
        <time>2022-10-18T12:08:51Z</time>
      </trkpt>
      <trkpt lat="44.88447" lon="5.24775">
        <ele>1210.92</ele>
        <time>2022-10-18T12:08:54Z</time>
      </trkpt>
      <trkpt lat="44.88456" lon="5.24799">
        <ele>1207.55</ele>
        <time>2022-10-18T12:09:12Z</time>
      </trkpt>
      <trkpt lat="44.88457" lon="5.248">
        <ele>1207.07</ele>
        <time>2022-10-18T12:09:13Z</time>
      </trkpt>
      <trkpt lat="44.88458" lon="5.24803">
        <ele>1206.59</ele>
        <time>2022-10-18T12:09:16Z</time>
      </trkpt>
      <trkpt lat="44.88464" lon="5.24812">
        <ele>1206.11</ele>
        <time>2022-10-18T12:09:24Z</time>
      </trkpt>
      <trkpt lat="44.88472" lon="5.24825">
        <ele>1205.63</ele>
        <time>2022-10-18T12:09:37Z</time>
      </trkpt>
      <trkpt lat="44.88473" lon="5.24828">
        <ele>1205.63</ele>
        <time>2022-10-18T12:09:39Z</time>
      </trkpt>
      <trkpt lat="44.88484" lon="5.24847">
        <ele>1204.67</ele>
        <time>2022-10-18T12:09:56Z</time>
      </trkpt>
      <trkpt lat="44.88494" lon="5.24865">
        <ele>1202.75</ele>
        <time>2022-10-18T12:10:11Z</time>
      </trkpt>
      <trkpt lat="44.88495" lon="5.24868">
        <ele>1202.27</ele>
        <time>2022-10-18T12:10:25Z</time>
      </trkpt>
      <trkpt lat="44.88502" lon="5.24878">
        <ele>1200.82</ele>
        <time>2022-10-18T12:11:37Z</time>
      </trkpt>
      <trkpt lat="44.88515" lon="5.24896">
        <ele>1199.38</ele>
        <time>2022-10-18T12:11:54Z</time>
      </trkpt>
      <trkpt lat="44.88521" lon="5.2491">
        <ele>1197.46</ele>
        <time>2022-10-18T12:12:05Z</time>
      </trkpt>
      <trkpt lat="44.88526" lon="5.24914">
        <ele>1196.98</ele>
        <time>2022-10-18T12:12:10Z</time>
      </trkpt>
      <trkpt lat="44.88539" lon="5.24934">
        <ele>1195.06</ele>
        <time>2022-10-18T12:12:27Z</time>
      </trkpt>
      <trkpt lat="44.88556" lon="5.2495">
        <ele>1192.65</ele>
        <time>2022-10-18T12:12:47Z</time>
      </trkpt>
      <trkpt lat="44.88562" lon="5.24969">
        <ele>1190.25</ele>
        <time>2022-10-18T12:13:01Z</time>
      </trkpt>
      <trkpt lat="44.88576" lon="5.24989">
        <ele>1188.81</ele>
        <time>2022-10-18T12:13:18Z</time>
      </trkpt>
      <trkpt lat="44.88584" lon="5.25">
        <ele>1187.85</ele>
        <time>2022-10-18T12:13:33Z</time>
      </trkpt>
      <trkpt lat="44.8859" lon="5.25009">
        <ele>1186.4</ele>
        <time>2022-10-18T12:13:48Z</time>
      </trkpt>
      <trkpt lat="44.88608" lon="5.25026">
        <ele>1184.48</ele>
        <time>2022-10-18T12:14:07Z</time>
      </trkpt>
      <trkpt lat="44.88623" lon="5.25041">
        <ele>1182.08</ele>
        <time>2022-10-18T12:14:23Z</time>
      </trkpt>
      <trkpt lat="44.88633" lon="5.25059">
        <ele>1180.16</ele>
        <time>2022-10-18T12:14:39Z</time>
      </trkpt>
      <trkpt lat="44.88637" lon="5.25064">
        <ele>1179.19</ele>
        <time>2022-10-18T12:14:44Z</time>
      </trkpt>
      <trkpt lat="44.8864" lon="5.25067">
        <ele>1178.71</ele>
        <time>2022-10-18T12:14:48Z</time>
      </trkpt>
      <trkpt lat="44.88642" lon="5.25078">
        <ele>1177.27</ele>
        <time>2022-10-18T12:14:56Z</time>
      </trkpt>
      <trkpt lat="44.88649" lon="5.25107">
        <ele>1174.39</ele>
        <time>2022-10-18T12:15:17Z</time>
      </trkpt>
      <trkpt lat="44.8866" lon="5.2512">
        <ele>1172.47</ele>
        <time>2022-10-18T12:15:32Z</time>
      </trkpt>
      <trkpt lat="44.88679" lon="5.25131">
        <ele>1171.5</ele>
        <time>2022-10-18T12:15:49Z</time>
      </trkpt>
      <trkpt lat="44.88681" lon="5.25132">
        <ele>1171.5</ele>
        <time>2022-10-18T12:15:51Z</time>
      </trkpt>
      <trkpt lat="44.88701" lon="5.2514">
        <ele>1170.54</ele>
        <time>2022-10-18T12:16:08Z</time>
      </trkpt>
      <trkpt lat="44.88718" lon="5.25154">
        <ele>1169.1</ele>
        <time>2022-10-18T12:16:24Z</time>
      </trkpt>
      <trkpt lat="44.88733" lon="5.25165">
        <ele>1168.62</ele>
        <time>2022-10-18T12:16:38Z</time>
      </trkpt>
      <trkpt lat="44.88753" lon="5.25178">
        <ele>1166.7</ele>
        <time>2022-10-18T12:16:56Z</time>
      </trkpt>
      <trkpt lat="44.88769" lon="5.25199">
        <ele>1164.29</ele>
        <time>2022-10-18T12:17:13Z</time>
      </trkpt>
      <trkpt lat="44.88783" lon="5.25218">
        <ele>1163.33</ele>
        <time>2022-10-18T12:17:29Z</time>
      </trkpt>
      <trkpt lat="44.88802" lon="5.25239">
        <ele>1162.85</ele>
        <time>2022-10-18T12:17:49Z</time>
      </trkpt>
      <trkpt lat="44.88816" lon="5.25255">
        <ele>1162.85</ele>
        <time>2022-10-18T12:18:04Z</time>
      </trkpt>
      <trkpt lat="44.88833" lon="5.25269">
        <ele>1162.85</ele>
        <time>2022-10-18T12:18:21Z</time>
      </trkpt>
      <trkpt lat="44.8885" lon="5.25281">
        <ele>1162.85</ele>
        <time>2022-10-18T12:18:37Z</time>
      </trkpt>
      <trkpt lat="44.88868" lon="5.2529">
        <ele>1162.85</ele>
        <time>2022-10-18T12:18:53Z</time>
      </trkpt>
      <trkpt lat="44.88884" lon="5.25299">
        <ele>1162.37</ele>
        <time>2022-10-18T12:19:08Z</time>
      </trkpt>
      <trkpt lat="44.88897" lon="5.25308">
        <ele>1163.33</ele>
        <time>2022-10-18T12:19:21Z</time>
      </trkpt>
      <trkpt lat="44.88917" lon="5.25315">
        <ele>1163.33</ele>
        <time>2022-10-18T12:19:37Z</time>
      </trkpt>
      <trkpt lat="44.88932" lon="5.25319">
        <ele>1162.85</ele>
        <time>2022-10-18T12:19:51Z</time>
      </trkpt>
      <trkpt lat="44.88943" lon="5.25315">
        <ele>1161.89</ele>
        <time>2022-10-18T12:20:00Z</time>
      </trkpt>
      <trkpt lat="44.88948" lon="5.2531">
        <ele>1160.93</ele>
        <time>2022-10-18T12:20:05Z</time>
      </trkpt>
      <trkpt lat="44.88974" lon="5.25291">
        <ele>1158.05</ele>
        <time>2022-10-18T12:20:25Z</time>
      </trkpt>
      <trkpt lat="44.88995" lon="5.25279">
        <ele>1157.08</ele>
        <time>2022-10-18T12:20:44Z</time>
      </trkpt>
      <trkpt lat="44.8901" lon="5.25266">
        <ele>1156.12</ele>
        <time>2022-10-18T12:20:59Z</time>
      </trkpt>
      <trkpt lat="44.89029" lon="5.25254">
        <ele>1154.68</ele>
        <time>2022-10-18T12:21:15Z</time>
      </trkpt>
      <trkpt lat="44.89054" lon="5.25246">
        <ele>1152.76</ele>
        <time>2022-10-18T12:21:34Z</time>
      </trkpt>
      <trkpt lat="44.89079" lon="5.25243">
        <ele>1150.35</ele>
        <time>2022-10-18T12:21:54Z</time>
      </trkpt>
      <trkpt lat="44.89098" lon="5.25239">
        <ele>1147.47</ele>
        <time>2022-10-18T12:22:11Z</time>
      </trkpt>
      <trkpt lat="44.89118" lon="5.25236">
        <ele>1145.55</ele>
        <time>2022-10-18T12:22:26Z</time>
      </trkpt>
      <trkpt lat="44.89142" lon="5.25231">
        <ele>1143.14</ele>
        <time>2022-10-18T12:22:44Z</time>
      </trkpt>
      <trkpt lat="44.89164" lon="5.25227">
        <ele>1141.22</ele>
        <time>2022-10-18T12:23:01Z</time>
      </trkpt>
      <trkpt lat="44.8918" lon="5.25235">
        <ele>1139.3</ele>
        <time>2022-10-18T12:23:16Z</time>
      </trkpt>
      <trkpt lat="44.89197" lon="5.25251">
        <ele>1137.86</ele>
        <time>2022-10-18T12:23:32Z</time>
      </trkpt>
      <trkpt lat="44.89214" lon="5.25278">
        <ele>1134.97</ele>
        <time>2022-10-18T12:23:50Z</time>
      </trkpt>
      <trkpt lat="44.89226" lon="5.253">
        <ele>1134.01</ele>
        <time>2022-10-18T12:24:07Z</time>
      </trkpt>
      <trkpt lat="44.89237" lon="5.2532">
        <ele>1133.05</ele>
        <time>2022-10-18T12:24:23Z</time>
      </trkpt>
      <trkpt lat="44.89245" lon="5.25323">
        <ele>1132.57</ele>
        <time>2022-10-18T12:24:36Z</time>
      </trkpt>
      <trkpt lat="44.89247" lon="5.25323">
        <ele>1132.57</ele>
        <time>2022-10-18T12:24:38Z</time>
      </trkpt>
      <trkpt lat="44.89262" lon="5.25333">
        <ele>1132.09</ele>
        <time>2022-10-18T12:24:54Z</time>
      </trkpt>
      <trkpt lat="44.89267" lon="5.25341">
        <ele>1130.65</ele>
        <time>2022-10-18T12:25:06Z</time>
      </trkpt>
      <trkpt lat="44.89271" lon="5.25344">
        <ele>1130.17</ele>
        <time>2022-10-18T12:25:38Z</time>
      </trkpt>
      <trkpt lat="44.89275" lon="5.25355">
        <ele>1130.17</ele>
        <time>2022-10-18T12:25:54Z</time>
      </trkpt>
      <trkpt lat="44.89277" lon="5.25359">
        <ele>1129.21</ele>
        <time>2022-10-18T12:27:58Z</time>
      </trkpt>
      <trkpt lat="44.89282" lon="5.25368">
        <ele>1128.73</ele>
        <time>2022-10-18T12:28:48Z</time>
      </trkpt>
      <trkpt lat="44.89284" lon="5.25372">
        <ele>1128.73</ele>
        <time>2022-10-18T12:29:09Z</time>
      </trkpt>
      <trkpt lat="44.89289" lon="5.25372">
        <ele>1128.24</ele>
        <time>2022-10-18T12:29:27Z</time>
      </trkpt>
      <trkpt lat="44.89291" lon="5.25373">
        <ele>1128.24</ele>
        <time>2022-10-18T12:29:52Z</time>
      </trkpt>
      <trkpt lat="44.89302" lon="5.25368">
        <ele>1121.52</ele>
        <time>2022-10-18T12:38:21Z</time>
      </trkpt>
      <trkpt lat="44.89308" lon="5.25365">
        <ele>1121.52</ele>
        <time>2022-10-18T12:38:28Z</time>
      </trkpt>
      <trkpt lat="44.89325" lon="5.25361">
        <ele>1119.59</ele>
        <time>2022-10-18T12:38:45Z</time>
      </trkpt>
      <trkpt lat="44.89339" lon="5.25364">
        <ele>1119.11</ele>
        <time>2022-10-18T12:39:02Z</time>
      </trkpt>
      <trkpt lat="44.89358" lon="5.25371">
        <ele>1118.63</ele>
        <time>2022-10-18T12:39:21Z</time>
      </trkpt>
      <trkpt lat="44.89369" lon="5.25376">
        <ele>1117.67</ele>
        <time>2022-10-18T12:39:34Z</time>
      </trkpt>
      <trkpt lat="44.8938" lon="5.2538">
        <ele>1117.67</ele>
        <time>2022-10-18T12:39:46Z</time>
      </trkpt>
      <trkpt lat="44.89401" lon="5.25378">
        <ele>1116.71</ele>
        <time>2022-10-18T12:40:05Z</time>
      </trkpt>
      <trkpt lat="44.89402" lon="5.25378">
        <ele>1116.71</ele>
        <time>2022-10-18T12:40:06Z</time>
      </trkpt>
      <trkpt lat="44.89415" lon="5.25376">
        <ele>1116.23</ele>
        <time>2022-10-18T12:40:20Z</time>
      </trkpt>
      <trkpt lat="44.89433" lon="5.25378">
        <ele>1115.75</ele>
        <time>2022-10-18T12:40:35Z</time>
      </trkpt>
      <trkpt lat="44.89453" lon="5.25375">
        <ele>1115.27</ele>
        <time>2022-10-18T12:40:53Z</time>
      </trkpt>
      <trkpt lat="44.89469" lon="5.25371">
        <ele>1114.79</ele>
        <time>2022-10-18T12:41:08Z</time>
      </trkpt>
      <trkpt lat="44.89489" lon="5.25368">
        <ele>1114.31</ele>
        <time>2022-10-18T12:41:24Z</time>
      </trkpt>
      <trkpt lat="44.89511" lon="5.25365">
        <ele>1113.82</ele>
        <time>2022-10-18T12:41:41Z</time>
      </trkpt>
      <trkpt lat="44.89531" lon="5.25359">
        <ele>1112.86</ele>
        <time>2022-10-18T12:41:58Z</time>
      </trkpt>
      <trkpt lat="44.89548" lon="5.25347">
        <ele>1112.38</ele>
        <time>2022-10-18T12:42:14Z</time>
      </trkpt>
      <trkpt lat="44.89567" lon="5.25339">
        <ele>1111.9</ele>
        <time>2022-10-18T12:42:31Z</time>
      </trkpt>
      <trkpt lat="44.89589" lon="5.2534">
        <ele>1111.9</ele>
        <time>2022-10-18T12:42:49Z</time>
      </trkpt>
      <trkpt lat="44.89599" lon="5.25345">
        <ele>1111.9</ele>
        <time>2022-10-18T12:42:58Z</time>
      </trkpt>
      <trkpt lat="44.89615" lon="5.25369">
        <ele>1111.42</ele>
        <time>2022-10-18T12:43:17Z</time>
      </trkpt>
      <trkpt lat="44.89618" lon="5.25369">
        <ele>1111.42</ele>
        <time>2022-10-18T12:43:19Z</time>
      </trkpt>
      <trkpt lat="44.89638" lon="5.25368">
        <ele>1110.94</ele>
        <time>2022-10-18T12:43:36Z</time>
      </trkpt>
      <trkpt lat="44.8966" lon="5.25371">
        <ele>1110.46</ele>
        <time>2022-10-18T12:43:54Z</time>
      </trkpt>
      <trkpt lat="44.89674" lon="5.25376">
        <ele>1109.98</ele>
        <time>2022-10-18T12:44:06Z</time>
      </trkpt>
      <trkpt lat="44.89695" lon="5.25378">
        <ele>1109.98</ele>
        <time>2022-10-18T12:44:25Z</time>
      </trkpt>
      <trkpt lat="44.89712" lon="5.25377">
        <ele>1109.5</ele>
        <time>2022-10-18T12:44:40Z</time>
      </trkpt>
      <trkpt lat="44.89728" lon="5.25377">
        <ele>1109.5</ele>
        <time>2022-10-18T12:44:54Z</time>
      </trkpt>
      <trkpt lat="44.89741" lon="5.25375">
        <ele>1109.5</ele>
        <time>2022-10-18T12:45:08Z</time>
      </trkpt>
      <trkpt lat="44.89755" lon="5.25367">
        <ele>1109.02</ele>
        <time>2022-10-18T12:45:21Z</time>
      </trkpt>
      <trkpt lat="44.89771" lon="5.25366">
        <ele>1108.54</ele>
        <time>2022-10-18T12:45:34Z</time>
      </trkpt>
      <trkpt lat="44.89783" lon="5.25374">
        <ele>1109.02</ele>
        <time>2022-10-18T12:45:48Z</time>
      </trkpt>
      <trkpt lat="44.89802" lon="5.25376">
        <ele>1109.02</ele>
        <time>2022-10-18T12:46:00Z</time>
      </trkpt>
      <trkpt lat="44.89821" lon="5.25375">
        <ele>1109.02</ele>
        <time>2022-10-18T12:46:15Z</time>
      </trkpt>
      <trkpt lat="44.89823" lon="5.25375">
        <ele>1108.54</ele>
        <time>2022-10-18T12:46:17Z</time>
      </trkpt>
      <trkpt lat="44.89845" lon="5.25373">
        <ele>1108.06</ele>
        <time>2022-10-18T12:46:34Z</time>
      </trkpt>
      <trkpt lat="44.8986" lon="5.25377">
        <ele>1108.54</ele>
        <time>2022-10-18T12:46:47Z</time>
      </trkpt>
      <trkpt lat="44.89875" lon="5.25381">
        <ele>1108.06</ele>
        <time>2022-10-18T12:47:01Z</time>
      </trkpt>
      <trkpt lat="44.89881" lon="5.25382">
        <ele>1108.06</ele>
        <time>2022-10-18T12:47:07Z</time>
      </trkpt>
      <trkpt lat="44.89893" lon="5.25383">
        <ele>1108.06</ele>
        <time>2022-10-18T12:47:17Z</time>
      </trkpt>
      <trkpt lat="44.8991" lon="5.25387">
        <ele>1108.06</ele>
        <time>2022-10-18T12:47:31Z</time>
      </trkpt>
      <trkpt lat="44.89933" lon="5.25382">
        <ele>1108.06</ele>
        <time>2022-10-18T12:47:48Z</time>
      </trkpt>
      <trkpt lat="44.89939" lon="5.2538">
        <ele>1108.06</ele>
        <time>2022-10-18T12:47:53Z</time>
      </trkpt>
      <trkpt lat="44.89956" lon="5.25371">
        <ele>1107.58</ele>
        <time>2022-10-18T12:48:06Z</time>
      </trkpt>
      <trkpt lat="44.8996" lon="5.25369">
        <ele>1107.58</ele>
        <time>2022-10-18T12:48:10Z</time>
      </trkpt>
      <trkpt lat="44.89978" lon="5.25364">
        <ele>1107.58</ele>
        <time>2022-10-18T12:48:26Z</time>
      </trkpt>
      <trkpt lat="44.89991" lon="5.25362">
        <ele>1107.58</ele>
        <time>2022-10-18T12:48:37Z</time>
      </trkpt>
      <trkpt lat="44.89999" lon="5.25359">
        <ele>1107.1</ele>
        <time>2022-10-18T12:48:45Z</time>
      </trkpt>
      <trkpt lat="44.90017" lon="5.25347">
        <ele>1106.61</ele>
        <time>2022-10-18T12:49:00Z</time>
      </trkpt>
      <trkpt lat="44.90035" lon="5.25338">
        <ele>1106.13</ele>
        <time>2022-10-18T12:49:15Z</time>
      </trkpt>
      <trkpt lat="44.90052" lon="5.25333">
        <ele>1105.17</ele>
        <time>2022-10-18T12:49:29Z</time>
      </trkpt>
      <trkpt lat="44.9007" lon="5.25325">
        <ele>1104.69</ele>
        <time>2022-10-18T12:49:44Z</time>
      </trkpt>
      <trkpt lat="44.90083" lon="5.25315">
        <ele>1104.69</ele>
        <time>2022-10-18T12:49:58Z</time>
      </trkpt>
      <trkpt lat="44.90083" lon="5.25318">
        <ele>1104.69</ele>
        <time>2022-10-18T12:50:20Z</time>
      </trkpt>
      <trkpt lat="44.90084" lon="5.25319">
        <ele>1104.69</ele>
        <time>2022-10-18T12:50:39Z</time>
      </trkpt>
      <trkpt lat="44.90087" lon="5.2532">
        <ele>1104.69</ele>
        <time>2022-10-18T12:50:55Z</time>
      </trkpt>
      <trkpt lat="44.90091" lon="5.25319">
        <ele>1104.69</ele>
        <time>2022-10-18T12:51:11Z</time>
      </trkpt>
      <trkpt lat="44.90091" lon="5.25315">
        <ele>1104.69</ele>
        <time>2022-10-18T12:51:35Z</time>
      </trkpt>
      <trkpt lat="44.90091" lon="5.2532">
        <ele>1104.69</ele>
        <time>2022-10-18T12:53:12Z</time>
      </trkpt>
      <trkpt lat="44.90088" lon="5.2532">
        <ele>1104.69</ele>
        <time>2022-10-18T12:53:20Z</time>
      </trkpt>
      <trkpt lat="44.90086" lon="5.25318">
        <ele>1104.69</ele>
        <time>2022-10-18T12:53:23Z</time>
      </trkpt>
      <trkpt lat="44.90085" lon="5.25316">
        <ele>1104.69</ele>
        <time>2022-10-18T12:53:25Z</time>
      </trkpt>
      <trkpt lat="44.90086" lon="5.25313">
        <ele>1104.69</ele>
        <time>2022-10-18T12:53:27Z</time>
      </trkpt>
      <trkpt lat="44.90091" lon="5.253">
        <ele>1104.69</ele>
        <time>2022-10-18T12:53:40Z</time>
      </trkpt>
      <trkpt lat="44.90096" lon="5.25273">
        <ele>1104.69</ele>
        <time>2022-10-18T12:53:57Z</time>
      </trkpt>
      <trkpt lat="44.90098" lon="5.25245">
        <ele>1104.69</ele>
        <time>2022-10-18T12:54:14Z</time>
      </trkpt>
      <trkpt lat="44.90102" lon="5.25234">
        <ele>1104.69</ele>
        <time>2022-10-18T12:54:21Z</time>
      </trkpt>
      <trkpt lat="44.90117" lon="5.25218">
        <ele>1104.21</ele>
        <time>2022-10-18T12:54:37Z</time>
      </trkpt>
      <trkpt lat="44.90128" lon="5.25211">
        <ele>1103.73</ele>
        <time>2022-10-18T12:54:52Z</time>
      </trkpt>
      <trkpt lat="44.90138" lon="5.25203">
        <ele>1103.25</ele>
        <time>2022-10-18T12:55:07Z</time>
      </trkpt>
      <trkpt lat="44.9014" lon="5.25203">
        <ele>1102.29</ele>
        <time>2022-10-18T12:55:22Z</time>
      </trkpt>
      <trkpt lat="44.90142" lon="5.25205">
        <ele>1103.25</ele>
        <time>2022-10-18T12:56:06Z</time>
      </trkpt>
      <trkpt lat="44.90141" lon="5.25204">
        <ele>1103.25</ele>
        <time>2022-10-18T12:56:20Z</time>
      </trkpt>
      <trkpt lat="44.90143" lon="5.25208">
        <ele>1103.25</ele>
        <time>2022-10-18T12:56:46Z</time>
      </trkpt>
      <trkpt lat="44.9015" lon="5.25202">
        <ele>1103.25</ele>
        <time>2022-10-18T12:57:03Z</time>
      </trkpt>
      <trkpt lat="44.90162" lon="5.252">
        <ele>1103.25</ele>
        <time>2022-10-18T12:57:17Z</time>
      </trkpt>
      <trkpt lat="44.90175" lon="5.25194">
        <ele>1103.25</ele>
        <time>2022-10-18T12:57:31Z</time>
      </trkpt>
      <trkpt lat="44.90186" lon="5.25187">
        <ele>1103.25</ele>
        <time>2022-10-18T12:57:46Z</time>
      </trkpt>
      <trkpt lat="44.90193" lon="5.2519">
        <ele>1101.81</ele>
        <time>2022-10-18T12:58:00Z</time>
      </trkpt>
      <trkpt lat="44.9021" lon="5.2519">
        <ele>1101.81</ele>
        <time>2022-10-18T12:58:15Z</time>
      </trkpt>
      <trkpt lat="44.90225" lon="5.25193">
        <ele>1101.33</ele>
        <time>2022-10-18T12:58:29Z</time>
      </trkpt>
      <trkpt lat="44.90233" lon="5.25204">
        <ele>1098.92</ele>
        <time>2022-10-18T12:58:43Z</time>
      </trkpt>
      <trkpt lat="44.90238" lon="5.25223">
        <ele>1098.92</ele>
        <time>2022-10-18T12:58:57Z</time>
      </trkpt>
      <trkpt lat="44.90239" lon="5.25225">
        <ele>1098.92</ele>
        <time>2022-10-18T12:58:58Z</time>
      </trkpt>
      <trkpt lat="44.90244" lon="5.25241">
        <ele>1098.92</ele>
        <time>2022-10-18T12:59:11Z</time>
      </trkpt>
      <trkpt lat="44.90246" lon="5.25259">
        <ele>1097.96</ele>
        <time>2022-10-18T12:59:22Z</time>
      </trkpt>
      <trkpt lat="44.9025" lon="5.25272">
        <ele>1097.48</ele>
        <time>2022-10-18T12:59:37Z</time>
      </trkpt>
      <trkpt lat="44.90245" lon="5.25275">
        <ele>1097.48</ele>
        <time>2022-10-18T12:59:55Z</time>
      </trkpt>
      <trkpt lat="44.90246" lon="5.25276">
        <ele>1098.92</ele>
        <time>2022-10-18T12:59:59Z</time>
      </trkpt>
      <trkpt lat="44.90243" lon="5.25275">
        <ele>1098.92</ele>
        <time>2022-10-18T13:00:13Z</time>
      </trkpt>
      <trkpt lat="44.9024" lon="5.25273">
        <ele>1098.92</ele>
        <time>2022-10-18T13:00:58Z</time>
      </trkpt>
      <trkpt lat="44.90241" lon="5.25267">
        <ele>1097.48</ele>
        <time>2022-10-18T13:01:15Z</time>
      </trkpt>
      <trkpt lat="44.90242" lon="5.25266">
        <ele>1097.48</ele>
        <time>2022-10-18T13:01:16Z</time>
      </trkpt>
      <trkpt lat="44.90246" lon="5.25259">
        <ele>1097.48</ele>
        <time>2022-10-18T13:01:30Z</time>
      </trkpt>
      <trkpt lat="44.90245" lon="5.25244">
        <ele>1098.44</ele>
        <time>2022-10-18T13:01:45Z</time>
      </trkpt>
      <trkpt lat="44.90238" lon="5.25228">
        <ele>1099.4</ele>
        <time>2022-10-18T13:02:01Z</time>
      </trkpt>
      <trkpt lat="44.90237" lon="5.25223">
        <ele>1099.4</ele>
        <time>2022-10-18T13:02:06Z</time>
      </trkpt>
      <trkpt lat="44.90232" lon="5.25208">
        <ele>1099.4</ele>
        <time>2022-10-18T13:02:20Z</time>
      </trkpt>
      <trkpt lat="44.90233" lon="5.252">
        <ele>1101.33</ele>
        <time>2022-10-18T13:02:35Z</time>
      </trkpt>
      <trkpt lat="44.90248" lon="5.25192">
        <ele>1101.81</ele>
        <time>2022-10-18T13:02:49Z</time>
      </trkpt>
      <trkpt lat="44.9026" lon="5.25177">
        <ele>1101.81</ele>
        <time>2022-10-18T13:03:04Z</time>
      </trkpt>
      <trkpt lat="44.90263" lon="5.25173">
        <ele>1100.37</ele>
        <time>2022-10-18T13:03:08Z</time>
      </trkpt>
      <trkpt lat="44.90271" lon="5.25157">
        <ele>1099.89</ele>
        <time>2022-10-18T13:03:22Z</time>
      </trkpt>
      <trkpt lat="44.90279" lon="5.2514">
        <ele>1099.4</ele>
        <time>2022-10-18T13:03:37Z</time>
      </trkpt>
      <trkpt lat="44.90284" lon="5.25132">
        <ele>1098.92</ele>
        <time>2022-10-18T13:03:45Z</time>
      </trkpt>
      <trkpt lat="44.90296" lon="5.2512">
        <ele>1097.96</ele>
        <time>2022-10-18T13:03:59Z</time>
      </trkpt>
      <trkpt lat="44.90307" lon="5.25124">
        <ele>1097</ele>
        <time>2022-10-18T13:04:11Z</time>
      </trkpt>
      <trkpt lat="44.90317" lon="5.25136">
        <ele>1096.04</ele>
        <time>2022-10-18T13:04:22Z</time>
      </trkpt>
      <trkpt lat="44.90338" lon="5.25155">
        <ele>1094.6</ele>
        <time>2022-10-18T13:04:37Z</time>
      </trkpt>
      <trkpt lat="44.90356" lon="5.25146">
        <ele>1092.2</ele>
        <time>2022-10-18T13:04:53Z</time>
      </trkpt>
      <trkpt lat="44.90357" lon="5.25142">
        <ele>1091.71</ele>
        <time>2022-10-18T13:04:56Z</time>
      </trkpt>
      <trkpt lat="44.90359" lon="5.25139">
        <ele>1091.23</ele>
        <time>2022-10-18T13:04:59Z</time>
      </trkpt>
      <trkpt lat="44.90363" lon="5.25134">
        <ele>1090.27</ele>
        <time>2022-10-18T13:05:04Z</time>
      </trkpt>
      <trkpt lat="44.90371" lon="5.25117">
        <ele>1087.39</ele>
        <time>2022-10-18T13:05:20Z</time>
      </trkpt>
      <trkpt lat="44.90377" lon="5.25101">
        <ele>1084.99</ele>
        <time>2022-10-18T13:05:35Z</time>
      </trkpt>
      <trkpt lat="44.90384" lon="5.25091">
        <ele>1082.58</ele>
        <time>2022-10-18T13:05:49Z</time>
      </trkpt>
      <trkpt lat="44.90394" lon="5.25089">
        <ele>1080.66</ele>
        <time>2022-10-18T13:06:03Z</time>
      </trkpt>
      <trkpt lat="44.90398" lon="5.25084">
        <ele>1079.7</ele>
        <time>2022-10-18T13:06:16Z</time>
      </trkpt>
      <trkpt lat="44.90405" lon="5.25082">
        <ele>1078.26</ele>
        <time>2022-10-18T13:06:31Z</time>
      </trkpt>
      <trkpt lat="44.9041" lon="5.25084">
        <ele>1077.29</ele>
        <time>2022-10-18T13:06:38Z</time>
      </trkpt>
      <trkpt lat="44.90421" lon="5.25081">
        <ele>1074.89</ele>
        <time>2022-10-18T13:06:54Z</time>
      </trkpt>
      <trkpt lat="44.90421" lon="5.25079">
        <ele>1074.41</ele>
        <time>2022-10-18T13:06:57Z</time>
      </trkpt>
      <trkpt lat="44.90427" lon="5.25069">
        <ele>1072.01</ele>
        <time>2022-10-18T13:07:10Z</time>
      </trkpt>
      <trkpt lat="44.90445" lon="5.25066">
        <ele>1069.6</ele>
        <time>2022-10-18T13:07:25Z</time>
      </trkpt>
      <trkpt lat="44.90453" lon="5.25067">
        <ele>1069.12</ele>
        <time>2022-10-18T13:07:30Z</time>
      </trkpt>
      <trkpt lat="44.90466" lon="5.25065">
        <ele>1066.72</ele>
        <time>2022-10-18T13:07:46Z</time>
      </trkpt>
      <trkpt lat="44.90486" lon="5.25062">
        <ele>1063.84</ele>
        <time>2022-10-18T13:08:04Z</time>
      </trkpt>
      <trkpt lat="44.90504" lon="5.25057">
        <ele>1061.43</ele>
        <time>2022-10-18T13:08:18Z</time>
      </trkpt>
      <trkpt lat="44.90523" lon="5.25057">
        <ele>1058.55</ele>
        <time>2022-10-18T13:08:35Z</time>
      </trkpt>
      <trkpt lat="44.90525" lon="5.25053">
        <ele>1057.59</ele>
        <time>2022-10-18T13:08:47Z</time>
      </trkpt>
      <trkpt lat="44.90522" lon="5.25051">
        <ele>1057.11</ele>
        <time>2022-10-18T13:09:03Z</time>
      </trkpt>
      <trkpt lat="44.90518" lon="5.2505">
        <ele>1057.11</ele>
        <time>2022-10-18T13:09:17Z</time>
      </trkpt>
      <trkpt lat="44.90509" lon="5.25049">
        <ele>1055.18</ele>
        <time>2022-10-18T13:09:31Z</time>
      </trkpt>
      <trkpt lat="44.90504" lon="5.25051">
        <ele>1055.18</ele>
        <time>2022-10-18T13:09:46Z</time>
      </trkpt>
      <trkpt lat="44.90495" lon="5.25048">
        <ele>1053.26</ele>
        <time>2022-10-18T13:09:58Z</time>
      </trkpt>
      <trkpt lat="44.90482" lon="5.25045">
        <ele>1051.34</ele>
        <time>2022-10-18T13:10:13Z</time>
      </trkpt>
      <trkpt lat="44.90474" lon="5.25041">
        <ele>1049.42</ele>
        <time>2022-10-18T13:10:29Z</time>
      </trkpt>
      <trkpt lat="44.90463" lon="5.25033">
        <ele>1047.49</ele>
        <time>2022-10-18T13:10:43Z</time>
      </trkpt>
      <trkpt lat="44.90458" lon="5.25027">
        <ele>1047.97</ele>
        <time>2022-10-18T13:10:56Z</time>
      </trkpt>
      <trkpt lat="44.90457" lon="5.25024">
        <ele>1047.97</ele>
        <time>2022-10-18T13:11:01Z</time>
      </trkpt>
      <trkpt lat="44.90456" lon="5.25022">
        <ele>1047.01</ele>
        <time>2022-10-18T13:11:03Z</time>
      </trkpt>
      <trkpt lat="44.9045" lon="5.2501">
        <ele>1043.65</ele>
        <time>2022-10-18T13:11:18Z</time>
      </trkpt>
      <trkpt lat="44.9044" lon="5.25">
        <ele>1041.73</ele>
        <time>2022-10-18T13:11:32Z</time>
      </trkpt>
      <trkpt lat="44.90428" lon="5.24989">
        <ele>1039.32</ele>
        <time>2022-10-18T13:11:46Z</time>
      </trkpt>
      <trkpt lat="44.9042" lon="5.24974">
        <ele>1038.36</ele>
        <time>2022-10-18T13:11:59Z</time>
      </trkpt>
      <trkpt lat="44.90418" lon="5.24969">
        <ele>1038.36</ele>
        <time>2022-10-18T13:12:02Z</time>
      </trkpt>
      <trkpt lat="44.9041" lon="5.24952">
        <ele>1035</ele>
        <time>2022-10-18T13:12:14Z</time>
      </trkpt>
      <trkpt lat="44.90401" lon="5.24932">
        <ele>1032.59</ele>
        <time>2022-10-18T13:12:28Z</time>
      </trkpt>
      <trkpt lat="44.90388" lon="5.24915">
        <ele>1030.19</ele>
        <time>2022-10-18T13:12:45Z</time>
      </trkpt>
      <trkpt lat="44.90377" lon="5.24905">
        <ele>1027.79</ele>
        <time>2022-10-18T13:12:58Z</time>
      </trkpt>
      <trkpt lat="44.90367" lon="5.24892">
        <ele>1025.86</ele>
        <time>2022-10-18T13:13:13Z</time>
      </trkpt>
      <trkpt lat="44.90356" lon="5.24877">
        <ele>1024.42</ele>
        <time>2022-10-18T13:13:27Z</time>
      </trkpt>
      <trkpt lat="44.90342" lon="5.24863">
        <ele>1022.5</ele>
        <time>2022-10-18T13:13:42Z</time>
      </trkpt>
      <trkpt lat="44.90332" lon="5.24848">
        <ele>1020.1</ele>
        <time>2022-10-18T13:13:56Z</time>
      </trkpt>
      <trkpt lat="44.90322" lon="5.24836">
        <ele>1018.17</ele>
        <time>2022-10-18T13:14:12Z</time>
      </trkpt>
      <trkpt lat="44.90315" lon="5.24818">
        <ele>1016.25</ele>
        <time>2022-10-18T13:14:27Z</time>
      </trkpt>
      <trkpt lat="44.90309" lon="5.24803">
        <ele>1014.81</ele>
        <time>2022-10-18T13:14:43Z</time>
      </trkpt>
      <trkpt lat="44.90303" lon="5.24786">
        <ele>1013.37</ele>
        <time>2022-10-18T13:14:56Z</time>
      </trkpt>
      <trkpt lat="44.90294" lon="5.24769">
        <ele>1011.44</ele>
        <time>2022-10-18T13:15:09Z</time>
      </trkpt>
      <trkpt lat="44.90282" lon="5.24752">
        <ele>1008.56</ele>
        <time>2022-10-18T13:15:23Z</time>
      </trkpt>
      <trkpt lat="44.90271" lon="5.24738">
        <ele>1007.12</ele>
        <time>2022-10-18T13:15:36Z</time>
      </trkpt>
      <trkpt lat="44.90264" lon="5.24723">
        <ele>1005.2</ele>
        <time>2022-10-18T13:15:50Z</time>
      </trkpt>
      <trkpt lat="44.90253" lon="5.24705">
        <ele>1002.79</ele>
        <time>2022-10-18T13:16:04Z</time>
      </trkpt>
      <trkpt lat="44.90248" lon="5.24691">
        <ele>1000.87</ele>
        <time>2022-10-18T13:16:15Z</time>
      </trkpt>
      <trkpt lat="44.90252" lon="5.24685">
        <ele>998.95</ele>
        <time>2022-10-18T13:16:25Z</time>
      </trkpt>
      <trkpt lat="44.90262" lon="5.24694">
        <ele>995.58</ele>
        <time>2022-10-18T13:16:41Z</time>
      </trkpt>
      <trkpt lat="44.90271" lon="5.24704">
        <ele>994.14</ele>
        <time>2022-10-18T13:16:53Z</time>
      </trkpt>
      <trkpt lat="44.90273" lon="5.24705">
        <ele>993.66</ele>
        <time>2022-10-18T13:16:55Z</time>
      </trkpt>
      <trkpt lat="44.9028" lon="5.24712">
        <ele>992.22</ele>
        <time>2022-10-18T13:17:04Z</time>
      </trkpt>
      <trkpt lat="44.90291" lon="5.24724">
        <ele>989.81</ele>
        <time>2022-10-18T13:17:18Z</time>
      </trkpt>
      <trkpt lat="44.90305" lon="5.24737">
        <ele>987.89</ele>
        <time>2022-10-18T13:17:31Z</time>
      </trkpt>
      <trkpt lat="44.90314" lon="5.24747">
        <ele>985.01</ele>
        <time>2022-10-18T13:17:43Z</time>
      </trkpt>
      <trkpt lat="44.90315" lon="5.24749">
        <ele>985.01</ele>
        <time>2022-10-18T13:17:44Z</time>
      </trkpt>
      <trkpt lat="44.90329" lon="5.24765">
        <ele>983.09</ele>
        <time>2022-10-18T13:17:58Z</time>
      </trkpt>
      <trkpt lat="44.90344" lon="5.2478">
        <ele>980.68</ele>
        <time>2022-10-18T13:18:13Z</time>
      </trkpt>
      <trkpt lat="44.90349" lon="5.24785">
        <ele>979.72</ele>
        <time>2022-10-18T13:18:18Z</time>
      </trkpt>
      <trkpt lat="44.90368" lon="5.24789">
        <ele>977.32</ele>
        <time>2022-10-18T13:18:32Z</time>
      </trkpt>
      <trkpt lat="44.90385" lon="5.24795">
        <ele>975.88</ele>
        <time>2022-10-18T13:18:46Z</time>
      </trkpt>
      <trkpt lat="44.90406" lon="5.24801">
        <ele>972.51</ele>
        <time>2022-10-18T13:19:00Z</time>
      </trkpt>
      <trkpt lat="44.90423" lon="5.24805">
        <ele>970.11</ele>
        <time>2022-10-18T13:19:13Z</time>
      </trkpt>
      <trkpt lat="44.90437" lon="5.24815">
        <ele>968.18</ele>
        <time>2022-10-18T13:19:27Z</time>
      </trkpt>
      <trkpt lat="44.90451" lon="5.24824">
        <ele>966.26</ele>
        <time>2022-10-18T13:19:41Z</time>
      </trkpt>
      <trkpt lat="44.9046" lon="5.24832">
        <ele>964.82</ele>
        <time>2022-10-18T13:19:49Z</time>
      </trkpt>
      <trkpt lat="44.90463" lon="5.24836">
        <ele>964.34</ele>
        <time>2022-10-18T13:19:52Z</time>
      </trkpt>
      <trkpt lat="44.90468" lon="5.24844">
        <ele>963.38</ele>
        <time>2022-10-18T13:19:58Z</time>
      </trkpt>
      <trkpt lat="44.90472" lon="5.2485">
        <ele>962.9</ele>
        <time>2022-10-18T13:20:02Z</time>
      </trkpt>
      <trkpt lat="44.9048" lon="5.24871">
        <ele>960.49</ele>
        <time>2022-10-18T13:20:16Z</time>
      </trkpt>
      <trkpt lat="44.90487" lon="5.24894">
        <ele>958.09</ele>
        <time>2022-10-18T13:20:30Z</time>
      </trkpt>
      <trkpt lat="44.90498" lon="5.2491">
        <ele>955.21</ele>
        <time>2022-10-18T13:20:44Z</time>
      </trkpt>
      <trkpt lat="44.90502" lon="5.24914">
        <ele>954.25</ele>
        <time>2022-10-18T13:20:48Z</time>
      </trkpt>
      <trkpt lat="44.90507" lon="5.24918">
        <ele>953.28</ele>
        <time>2022-10-18T13:20:52Z</time>
      </trkpt>
      <trkpt lat="44.90524" lon="5.24924">
        <ele>951.36</ele>
        <time>2022-10-18T13:21:02Z</time>
      </trkpt>
      <trkpt lat="44.90527" lon="5.2491">
        <ele>949.44</ele>
        <time>2022-10-18T13:21:15Z</time>
      </trkpt>
      <trkpt lat="44.90526" lon="5.24909">
        <ele>949.44</ele>
        <time>2022-10-18T13:21:16Z</time>
      </trkpt>
      <trkpt lat="44.90517" lon="5.24891">
        <ele>945.59</ele>
        <time>2022-10-18T13:21:32Z</time>
      </trkpt>
      <trkpt lat="44.90512" lon="5.24874">
        <ele>942.23</ele>
        <time>2022-10-18T13:21:44Z</time>
      </trkpt>
      <trkpt lat="44.90508" lon="5.24855">
        <ele>938.86</ele>
        <time>2022-10-18T13:21:57Z</time>
      </trkpt>
      <trkpt lat="44.90505" lon="5.24836">
        <ele>936.46</ele>
        <time>2022-10-18T13:22:09Z</time>
      </trkpt>
      <trkpt lat="44.905" lon="5.24812">
        <ele>933.58</ele>
        <time>2022-10-18T13:22:24Z</time>
      </trkpt>
      <trkpt lat="44.90494" lon="5.24795">
        <ele>931.65</ele>
        <time>2022-10-18T13:22:37Z</time>
      </trkpt>
      <trkpt lat="44.90481" lon="5.2477">
        <ele>928.77</ele>
        <time>2022-10-18T13:22:54Z</time>
      </trkpt>
      <trkpt lat="44.90472" lon="5.2476">
        <ele>927.33</ele>
        <time>2022-10-18T13:23:03Z</time>
      </trkpt>
      <trkpt lat="44.90458" lon="5.24742">
        <ele>924.93</ele>
        <time>2022-10-18T13:23:18Z</time>
      </trkpt>
      <trkpt lat="44.90444" lon="5.24724">
        <ele>923</ele>
        <time>2022-10-18T13:23:32Z</time>
      </trkpt>
      <trkpt lat="44.90442" lon="5.24723">
        <ele>922.52</ele>
        <time>2022-10-18T13:23:33Z</time>
      </trkpt>
      <trkpt lat="44.9043" lon="5.2471">
        <ele>920.12</ele>
        <time>2022-10-18T13:23:49Z</time>
      </trkpt>
      <trkpt lat="44.9042" lon="5.24701">
        <ele>918.2</ele>
        <time>2022-10-18T13:24:00Z</time>
      </trkpt>
      <trkpt lat="44.90413" lon="5.24691">
        <ele>917.24</ele>
        <time>2022-10-18T13:24:08Z</time>
      </trkpt>
      <trkpt lat="44.90404" lon="5.24663">
        <ele>914.83</ele>
        <time>2022-10-18T13:24:25Z</time>
      </trkpt>
      <trkpt lat="44.90391" lon="5.24646">
        <ele>912.43</ele>
        <time>2022-10-18T13:24:39Z</time>
      </trkpt>
      <trkpt lat="44.90378" lon="5.24628">
        <ele>910.03</ele>
        <time>2022-10-18T13:24:54Z</time>
      </trkpt>
      <trkpt lat="44.90368" lon="5.24607">
        <ele>909.54</ele>
        <time>2022-10-18T13:25:08Z</time>
      </trkpt>
      <trkpt lat="44.90365" lon="5.24602">
        <ele>909.54</ele>
        <time>2022-10-18T13:25:12Z</time>
      </trkpt>
      <trkpt lat="44.90362" lon="5.24594">
        <ele>909.06</ele>
        <time>2022-10-18T13:25:17Z</time>
      </trkpt>
      <trkpt lat="44.90362" lon="5.24571">
        <ele>908.58</ele>
        <time>2022-10-18T13:25:29Z</time>
      </trkpt>
      <trkpt lat="44.90363" lon="5.24565">
        <ele>908.1</ele>
        <time>2022-10-18T13:25:33Z</time>
      </trkpt>
      <trkpt lat="44.90372" lon="5.24546">
        <ele>904.74</ele>
        <time>2022-10-18T13:25:48Z</time>
      </trkpt>
      <trkpt lat="44.9038" lon="5.24528">
        <ele>901.85</ele>
        <time>2022-10-18T13:26:01Z</time>
      </trkpt>
      <trkpt lat="44.90386" lon="5.24522">
        <ele>901.37</ele>
        <time>2022-10-18T13:26:09Z</time>
      </trkpt>
      <trkpt lat="44.90386" lon="5.24503">
        <ele>899.45</ele>
        <time>2022-10-18T13:26:21Z</time>
      </trkpt>
      <trkpt lat="44.90385" lon="5.24478">
        <ele>895.61</ele>
        <time>2022-10-18T13:26:38Z</time>
      </trkpt>
      <trkpt lat="44.90385" lon="5.2446">
        <ele>894.64</ele>
        <time>2022-10-18T13:26:50Z</time>
      </trkpt>
      <trkpt lat="44.90382" lon="5.24443">
        <ele>892.72</ele>
        <time>2022-10-18T13:27:04Z</time>
      </trkpt>
      <trkpt lat="44.9038" lon="5.24418">
        <ele>890.8</ele>
        <time>2022-10-18T13:27:18Z</time>
      </trkpt>
      <trkpt lat="44.90381" lon="5.24398">
        <ele>888.88</ele>
        <time>2022-10-18T13:27:32Z</time>
      </trkpt>
      <trkpt lat="44.90385" lon="5.24396">
        <ele>885.99</ele>
        <time>2022-10-18T13:27:43Z</time>
      </trkpt>
      <trkpt lat="44.90393" lon="5.24395">
        <ele>882.63</ele>
        <time>2022-10-18T13:27:54Z</time>
      </trkpt>
      <trkpt lat="44.90398" lon="5.24395">
        <ele>880.71</ele>
        <time>2022-10-18T13:28:04Z</time>
      </trkpt>
      <trkpt lat="44.90408" lon="5.24398">
        <ele>876.86</ele>
        <time>2022-10-18T13:28:16Z</time>
      </trkpt>
      <trkpt lat="44.90417" lon="5.24404">
        <ele>873.5</ele>
        <time>2022-10-18T13:28:28Z</time>
      </trkpt>
      <trkpt lat="44.90424" lon="5.24399">
        <ele>870.13</ele>
        <time>2022-10-18T13:28:40Z</time>
      </trkpt>
      <trkpt lat="44.9043" lon="5.24399">
        <ele>866.77</ele>
        <time>2022-10-18T13:28:52Z</time>
      </trkpt>
      <trkpt lat="44.90438" lon="5.24402">
        <ele>863.4</ele>
        <time>2022-10-18T13:29:04Z</time>
      </trkpt>
      <trkpt lat="44.90445" lon="5.24408">
        <ele>861</ele>
        <time>2022-10-18T13:29:20Z</time>
      </trkpt>
      <trkpt lat="44.90453" lon="5.24406">
        <ele>857.63</ele>
        <time>2022-10-18T13:29:34Z</time>
      </trkpt>
      <trkpt lat="44.9046" lon="5.24409">
        <ele>854.75</ele>
        <time>2022-10-18T13:29:45Z</time>
      </trkpt>
      <trkpt lat="44.90468" lon="5.24423">
        <ele>851.38</ele>
        <time>2022-10-18T13:29:58Z</time>
      </trkpt>
      <trkpt lat="44.90477" lon="5.24428">
        <ele>848.5</ele>
        <time>2022-10-18T13:30:09Z</time>
      </trkpt>
      <trkpt lat="44.90487" lon="5.24431">
        <ele>846.1</ele>
        <time>2022-10-18T13:30:18Z</time>
      </trkpt>
      <trkpt lat="44.90496" lon="5.24434">
        <ele>842.73</ele>
        <time>2022-10-18T13:30:29Z</time>
      </trkpt>
      <trkpt lat="44.90507" lon="5.24437">
        <ele>839.37</ele>
        <time>2022-10-18T13:30:40Z</time>
      </trkpt>
      <trkpt lat="44.90516" lon="5.24439">
        <ele>836</ele>
        <time>2022-10-18T13:30:50Z</time>
      </trkpt>
      <trkpt lat="44.90517" lon="5.24439">
        <ele>836</ele>
        <time>2022-10-18T13:30:51Z</time>
      </trkpt>
      <trkpt lat="44.90527" lon="5.24448">
        <ele>832.64</ele>
        <time>2022-10-18T13:31:04Z</time>
      </trkpt>
      <trkpt lat="44.90537" lon="5.24459">
        <ele>829.76</ele>
        <time>2022-10-18T13:31:15Z</time>
      </trkpt>
      <trkpt lat="44.90548" lon="5.24461">
        <ele>826.87</ele>
        <time>2022-10-18T13:31:27Z</time>
      </trkpt>
      <trkpt lat="44.90555" lon="5.24462">
        <ele>823.51</ele>
        <time>2022-10-18T13:31:36Z</time>
      </trkpt>
      <trkpt lat="44.90568" lon="5.24468">
        <ele>820.62</ele>
        <time>2022-10-18T13:31:47Z</time>
      </trkpt>
      <trkpt lat="44.90582" lon="5.24477">
        <ele>816.78</ele>
        <time>2022-10-18T13:32:02Z</time>
      </trkpt>
      <trkpt lat="44.90592" lon="5.24477">
        <ele>813.89</ele>
        <time>2022-10-18T13:32:12Z</time>
      </trkpt>
      <trkpt lat="44.90593" lon="5.24477">
        <ele>813.89</ele>
        <time>2022-10-18T13:32:13Z</time>
      </trkpt>
      <trkpt lat="44.90605" lon="5.24489">
        <ele>810.53</ele>
        <time>2022-10-18T13:32:27Z</time>
      </trkpt>
      <trkpt lat="44.90606" lon="5.24491">
        <ele>810.05</ele>
        <time>2022-10-18T13:32:28Z</time>
      </trkpt>
      <trkpt lat="44.90609" lon="5.24494">
        <ele>809.57</ele>
        <time>2022-10-18T13:32:30Z</time>
      </trkpt>
      <trkpt lat="44.90624" lon="5.24504">
        <ele>806.2</ele>
        <time>2022-10-18T13:32:43Z</time>
      </trkpt>
      <trkpt lat="44.90634" lon="5.24504">
        <ele>803.32</ele>
        <time>2022-10-18T13:32:54Z</time>
      </trkpt>
      <trkpt lat="44.90644" lon="5.24513">
        <ele>799.95</ele>
        <time>2022-10-18T13:33:05Z</time>
      </trkpt>
      <trkpt lat="44.90654" lon="5.24524">
        <ele>797.07</ele>
        <time>2022-10-18T13:33:17Z</time>
      </trkpt>
      <trkpt lat="44.90666" lon="5.24535">
        <ele>794.19</ele>
        <time>2022-10-18T13:33:30Z</time>
      </trkpt>
      <trkpt lat="44.90677" lon="5.24544">
        <ele>791.78</ele>
        <time>2022-10-18T13:33:43Z</time>
      </trkpt>
      <trkpt lat="44.90693" lon="5.24561">
        <ele>788.9</ele>
        <time>2022-10-18T13:33:55Z</time>
      </trkpt>
      <trkpt lat="44.90698" lon="5.24566">
        <ele>787.94</ele>
        <time>2022-10-18T13:33:59Z</time>
      </trkpt>
      <trkpt lat="44.90708" lon="5.24572">
        <ele>784.09</ele>
        <time>2022-10-18T13:34:12Z</time>
      </trkpt>
      <trkpt lat="44.90716" lon="5.24586">
        <ele>780.73</ele>
        <time>2022-10-18T13:34:24Z</time>
      </trkpt>
      <trkpt lat="44.90724" lon="5.246">
        <ele>777.36</ele>
        <time>2022-10-18T13:34:36Z</time>
      </trkpt>
      <trkpt lat="44.90732" lon="5.24615">
        <ele>774</ele>
        <time>2022-10-18T13:34:47Z</time>
      </trkpt>
      <trkpt lat="44.90739" lon="5.24626">
        <ele>771.11</ele>
        <time>2022-10-18T13:34:57Z</time>
      </trkpt>
      <trkpt lat="44.90752" lon="5.24627">
        <ele>768.71</ele>
        <time>2022-10-18T13:35:11Z</time>
      </trkpt>
      <trkpt lat="44.90762" lon="5.24626">
        <ele>770.63</ele>
        <time>2022-10-18T13:35:24Z</time>
      </trkpt>
      <trkpt lat="44.90772" lon="5.2463">
        <ele>771.6</ele>
        <time>2022-10-18T13:35:38Z</time>
      </trkpt>
      <trkpt lat="44.90788" lon="5.24637">
        <ele>772.08</ele>
        <time>2022-10-18T13:35:47Z</time>
      </trkpt>
      <trkpt lat="44.90804" lon="5.24654">
        <ele>772.08</ele>
        <time>2022-10-18T13:35:58Z</time>
      </trkpt>
      <trkpt lat="44.90809" lon="5.2468">
        <ele>771.6</ele>
        <time>2022-10-18T13:36:14Z</time>
      </trkpt>
      <trkpt lat="44.90809" lon="5.24681">
        <ele>771.6</ele>
        <time>2022-10-18T13:36:15Z</time>
      </trkpt>
      <trkpt lat="44.90811" lon="5.24686">
        <ele>770.63</ele>
        <time>2022-10-18T13:36:18Z</time>
      </trkpt>
      <trkpt lat="44.90826" lon="5.24703">
        <ele>768.23</ele>
        <time>2022-10-18T13:36:36Z</time>
      </trkpt>
      <trkpt lat="44.90833" lon="5.24714">
        <ele>767.75</ele>
        <time>2022-10-18T13:36:52Z</time>
      </trkpt>
    </trkseg>
  </trk>
</gpx>